<?xml version="1.0" encoding="UTF-8" standalone="no" ?>
<gpx xmlns="http://www.topografix.com/GPX/1/1" xmlns:xsi="http://www.w3.org/2001/XMLSchema-instance" xsi:schemaLocation="http://www.topografix.com/GPX/1/1 http://www.topografix.com/GPX/1/1/gpx.xsd" version="1.1" creator="VisuGPX - https://www.visugpx.com">
  <metadata>
    <name>De Neuilly Plaisance à Noisiel.</name>
    <desc><![CDATA[Départ à la gare de Neuilly Plaisance, arrivée à la gare RER de Noisiel. Nous passerons par les bords de la Marne, le parc de Noisie et ferons un détour pour voir la chocolaterie Menier. Daniel BAIJOT ]]></desc>
  </metadata>
  <trk>
    <name><![CDATA[Tracé actuel: 09 JAN 2014 08:15]]></name>
    <trkseg>
      <trkpt lat="48.85264" lon="2.51464">
        <ele>38.59</ele>
        <time>2014-01-09T07:15:41Z</time>
      </trkpt>
      <trkpt lat="48.85266" lon="2.51458">
        <ele>39.07</ele>
        <time>2014-01-09T07:15:51Z</time>
      </trkpt>
      <trkpt lat="48.85267" lon="2.51455">
        <ele>39.55</ele>
        <time>2014-01-09T07:15:53Z</time>
      </trkpt>
      <trkpt lat="48.85275" lon="2.51443">
        <ele>41.47</ele>
        <time>2014-01-09T07:16:01Z</time>
      </trkpt>
      <trkpt lat="48.85294" lon="2.51433">
        <ele>46.28</ele>
        <time>2014-01-09T07:16:18Z</time>
      </trkpt>
      <trkpt lat="48.85296" lon="2.5143">
        <ele>46.28</ele>
        <time>2014-01-09T07:16:21Z</time>
      </trkpt>
      <trkpt lat="48.85301" lon="2.5141">
        <ele>44.36</ele>
        <time>2014-01-09T07:19:17Z</time>
      </trkpt>
      <trkpt lat="48.85286" lon="2.51442">
        <ele>45.32</ele>
        <time>2014-01-09T07:19:36Z</time>
      </trkpt>
      <trkpt lat="48.85278" lon="2.51444">
        <ele>45.32</ele>
        <time>2014-01-09T07:19:41Z</time>
      </trkpt>
      <trkpt lat="48.85255" lon="2.51468">
        <ele>43.4</ele>
        <time>2014-01-09T07:20:03Z</time>
      </trkpt>
      <trkpt lat="48.85233" lon="2.51486">
        <ele>43.4</ele>
        <time>2014-01-09T07:20:20Z</time>
      </trkpt>
      <trkpt lat="48.85223" lon="2.51501">
        <ele>44.84</ele>
        <time>2014-01-09T07:20:38Z</time>
      </trkpt>
      <trkpt lat="48.85221" lon="2.51505">
        <ele>44.84</ele>
        <time>2014-01-09T07:20:40Z</time>
      </trkpt>
      <trkpt lat="48.85193" lon="2.5152">
        <ele>43.4</ele>
        <time>2014-01-09T07:21:01Z</time>
      </trkpt>
      <trkpt lat="48.85182" lon="2.51537">
        <ele>40.99</ele>
        <time>2014-01-09T07:21:18Z</time>
      </trkpt>
      <trkpt lat="48.85182" lon="2.51551">
        <ele>40.03</ele>
        <time>2014-01-09T07:21:25Z</time>
      </trkpt>
      <trkpt lat="48.85187" lon="2.51599">
        <ele>35.71</ele>
        <time>2014-01-09T07:21:45Z</time>
      </trkpt>
      <trkpt lat="48.85195" lon="2.51639">
        <ele>31.38</ele>
        <time>2014-01-09T07:22:08Z</time>
      </trkpt>
      <trkpt lat="48.85198" lon="2.51676">
        <ele>30.42</ele>
        <time>2014-01-09T07:22:32Z</time>
      </trkpt>
      <trkpt lat="48.85209" lon="2.51714">
        <ele>28.02</ele>
        <time>2014-01-09T07:22:54Z</time>
      </trkpt>
      <trkpt lat="48.85219" lon="2.51765">
        <ele>25.61</ele>
        <time>2014-01-09T07:23:19Z</time>
      </trkpt>
      <trkpt lat="48.85225" lon="2.51802">
        <ele>27.53</ele>
        <time>2014-01-09T07:23:38Z</time>
      </trkpt>
      <trkpt lat="48.85232" lon="2.51829">
        <ele>22.73</ele>
        <time>2014-01-09T07:23:53Z</time>
      </trkpt>
      <trkpt lat="48.85238" lon="2.51853">
        <ele>19.84</ele>
        <time>2014-01-09T07:24:10Z</time>
      </trkpt>
      <trkpt lat="48.85239" lon="2.51875">
        <ele>21.77</ele>
        <time>2014-01-09T07:24:32Z</time>
      </trkpt>
      <trkpt lat="48.85238" lon="2.51903">
        <ele>18.88</ele>
        <time>2014-01-09T07:24:50Z</time>
      </trkpt>
      <trkpt lat="48.85244" lon="2.51929">
        <ele>16</ele>
        <time>2014-01-09T07:25:09Z</time>
      </trkpt>
      <trkpt lat="48.85246" lon="2.51947">
        <ele>14.08</ele>
        <time>2014-01-09T07:25:20Z</time>
      </trkpt>
      <trkpt lat="48.85253" lon="2.51986">
        <ele>10.71</ele>
        <time>2014-01-09T07:25:41Z</time>
      </trkpt>
      <trkpt lat="48.8526" lon="2.52026">
        <ele>7.35</ele>
        <time>2014-01-09T07:26:04Z</time>
      </trkpt>
      <trkpt lat="48.85262" lon="2.52069">
        <ele>6.39</ele>
        <time>2014-01-09T07:26:25Z</time>
      </trkpt>
      <trkpt lat="48.85269" lon="2.52102">
        <ele>9.75</ele>
        <time>2014-01-09T07:26:44Z</time>
      </trkpt>
      <trkpt lat="48.85269" lon="2.52106">
        <ele>10.23</ele>
        <time>2014-01-09T07:26:46Z</time>
      </trkpt>
      <trkpt lat="48.85267" lon="2.52141">
        <ele>17.92</ele>
        <time>2014-01-09T07:27:00Z</time>
      </trkpt>
      <trkpt lat="48.8527" lon="2.52184">
        <ele>23.69</ele>
        <time>2014-01-09T07:27:18Z</time>
      </trkpt>
      <trkpt lat="48.85271" lon="2.52212">
        <ele>26.57</ele>
        <time>2014-01-09T07:27:31Z</time>
      </trkpt>
      <trkpt lat="48.85269" lon="2.52236">
        <ele>24.17</ele>
        <time>2014-01-09T07:27:46Z</time>
      </trkpt>
      <trkpt lat="48.8527" lon="2.52254">
        <ele>23.21</ele>
        <time>2014-01-09T07:27:56Z</time>
      </trkpt>
      <trkpt lat="48.85274" lon="2.52278">
        <ele>23.21</ele>
        <time>2014-01-09T07:28:06Z</time>
      </trkpt>
      <trkpt lat="48.85274" lon="2.52298">
        <ele>24.65</ele>
        <time>2014-01-09T07:28:14Z</time>
      </trkpt>
      <trkpt lat="48.85274" lon="2.52302">
        <ele>24.65</ele>
        <time>2014-01-09T07:28:16Z</time>
      </trkpt>
      <trkpt lat="48.85277" lon="2.52336">
        <ele>28.5</ele>
        <time>2014-01-09T07:28:33Z</time>
      </trkpt>
      <trkpt lat="48.85279" lon="2.52369">
        <ele>28.98</ele>
        <time>2014-01-09T07:28:48Z</time>
      </trkpt>
      <trkpt lat="48.85282" lon="2.52412">
        <ele>30.9</ele>
        <time>2014-01-09T07:29:07Z</time>
      </trkpt>
      <trkpt lat="48.85284" lon="2.52439">
        <ele>31.38</ele>
        <time>2014-01-09T07:29:25Z</time>
      </trkpt>
      <trkpt lat="48.85288" lon="2.52475">
        <ele>31.38</ele>
        <time>2014-01-09T07:29:42Z</time>
      </trkpt>
      <trkpt lat="48.85289" lon="2.52511">
        <ele>29.46</ele>
        <time>2014-01-09T07:29:56Z</time>
      </trkpt>
      <trkpt lat="48.85288" lon="2.52517">
        <ele>29.94</ele>
        <time>2014-01-09T07:29:59Z</time>
      </trkpt>
      <trkpt lat="48.85292" lon="2.52544">
        <ele>29.46</ele>
        <time>2014-01-09T07:30:16Z</time>
      </trkpt>
      <trkpt lat="48.85293" lon="2.52581">
        <ele>28.98</ele>
        <time>2014-01-09T07:30:30Z</time>
      </trkpt>
      <trkpt lat="48.85295" lon="2.52609">
        <ele>28.98</ele>
        <time>2014-01-09T07:30:48Z</time>
      </trkpt>
      <trkpt lat="48.85296" lon="2.5265">
        <ele>27.53</ele>
        <time>2014-01-09T07:31:06Z</time>
      </trkpt>
      <trkpt lat="48.853" lon="2.52685">
        <ele>27.05</ele>
        <time>2014-01-09T07:31:25Z</time>
      </trkpt>
      <trkpt lat="48.85302" lon="2.52723">
        <ele>28.98</ele>
        <time>2014-01-09T07:31:43Z</time>
      </trkpt>
      <trkpt lat="48.85305" lon="2.52762">
        <ele>34.74</ele>
        <time>2014-01-09T07:32:01Z</time>
      </trkpt>
      <trkpt lat="48.85306" lon="2.52765">
        <ele>34.74</ele>
        <time>2014-01-09T07:32:03Z</time>
      </trkpt>
      <trkpt lat="48.85311" lon="2.52793">
        <ele>32.34</ele>
        <time>2014-01-09T07:32:17Z</time>
      </trkpt>
      <trkpt lat="48.85313" lon="2.52813">
        <ele>29.94</ele>
        <time>2014-01-09T07:32:30Z</time>
      </trkpt>
      <trkpt lat="48.85316" lon="2.52834">
        <ele>27.05</ele>
        <time>2014-01-09T07:32:45Z</time>
      </trkpt>
      <trkpt lat="48.85326" lon="2.52878">
        <ele>24.65</ele>
        <time>2014-01-09T07:33:08Z</time>
      </trkpt>
      <trkpt lat="48.85332" lon="2.52919">
        <ele>24.65</ele>
        <time>2014-01-09T07:33:29Z</time>
      </trkpt>
      <trkpt lat="48.85343" lon="2.52963">
        <ele>28.02</ele>
        <time>2014-01-09T07:33:51Z</time>
      </trkpt>
      <trkpt lat="48.85345" lon="2.52971">
        <ele>28.5</ele>
        <time>2014-01-09T07:33:55Z</time>
      </trkpt>
      <trkpt lat="48.8535" lon="2.53">
        <ele>26.57</ele>
        <time>2014-01-09T07:34:12Z</time>
      </trkpt>
      <trkpt lat="48.8535" lon="2.53011">
        <ele>26.57</ele>
        <time>2014-01-09T07:34:28Z</time>
      </trkpt>
      <trkpt lat="48.85354" lon="2.53024">
        <ele>28.5</ele>
        <time>2014-01-09T07:34:45Z</time>
      </trkpt>
      <trkpt lat="48.85361" lon="2.53046">
        <ele>29.46</ele>
        <time>2014-01-09T07:34:58Z</time>
      </trkpt>
      <trkpt lat="48.8537" lon="2.53079">
        <ele>31.38</ele>
        <time>2014-01-09T07:35:15Z</time>
      </trkpt>
      <trkpt lat="48.85377" lon="2.53115">
        <ele>33.3</ele>
        <time>2014-01-09T07:35:31Z</time>
      </trkpt>
      <trkpt lat="48.85381" lon="2.53141">
        <ele>30.9</ele>
        <time>2014-01-09T07:35:48Z</time>
      </trkpt>
      <trkpt lat="48.85387" lon="2.53168">
        <ele>31.38</ele>
        <time>2014-01-09T07:36:00Z</time>
      </trkpt>
      <trkpt lat="48.85401" lon="2.53186">
        <ele>32.34</ele>
        <time>2014-01-09T07:36:15Z</time>
      </trkpt>
      <trkpt lat="48.85403" lon="2.53189">
        <ele>33.3</ele>
        <time>2014-01-09T07:36:21Z</time>
      </trkpt>
      <trkpt lat="48.85406" lon="2.53188">
        <ele>31.86</ele>
        <time>2014-01-09T07:36:24Z</time>
      </trkpt>
      <trkpt lat="48.85413" lon="2.53186">
        <ele>32.34</ele>
        <time>2014-01-09T07:36:30Z</time>
      </trkpt>
      <trkpt lat="48.85418" lon="2.53188">
        <ele>32.82</ele>
        <time>2014-01-09T07:36:35Z</time>
      </trkpt>
      <trkpt lat="48.85426" lon="2.53191">
        <ele>33.3</ele>
        <time>2014-01-09T07:36:46Z</time>
      </trkpt>
      <trkpt lat="48.85435" lon="2.53185">
        <ele>34.26</ele>
        <time>2014-01-09T07:36:59Z</time>
      </trkpt>
      <trkpt lat="48.85463" lon="2.53182">
        <ele>36.19</ele>
        <time>2014-01-09T07:37:19Z</time>
      </trkpt>
      <trkpt lat="48.85487" lon="2.53176">
        <ele>38.59</ele>
        <time>2014-01-09T07:37:40Z</time>
      </trkpt>
      <trkpt lat="48.85481" lon="2.53186">
        <ele>44.84</ele>
        <time>2014-01-09T07:37:56Z</time>
      </trkpt>
      <trkpt lat="48.85472" lon="2.53194">
        <ele>47.72</ele>
        <time>2014-01-09T07:38:05Z</time>
      </trkpt>
      <trkpt lat="48.85438" lon="2.53216">
        <ele>45.32</ele>
        <time>2014-01-09T07:38:26Z</time>
      </trkpt>
      <trkpt lat="48.85421" lon="2.53229">
        <ele>44.84</ele>
        <time>2014-01-09T07:38:43Z</time>
      </trkpt>
      <trkpt lat="48.854" lon="2.53239">
        <ele>47.24</ele>
        <time>2014-01-09T07:38:57Z</time>
      </trkpt>
      <trkpt lat="48.85378" lon="2.53252">
        <ele>45.8</ele>
        <time>2014-01-09T07:39:16Z</time>
      </trkpt>
      <trkpt lat="48.85375" lon="2.53255">
        <ele>45.32</ele>
        <time>2014-01-09T07:39:20Z</time>
      </trkpt>
      <trkpt lat="48.85372" lon="2.53255">
        <ele>44.84</ele>
        <time>2014-01-09T07:39:22Z</time>
      </trkpt>
      <trkpt lat="48.85352" lon="2.53269">
        <ele>43.4</ele>
        <time>2014-01-09T07:39:38Z</time>
      </trkpt>
      <trkpt lat="48.85324" lon="2.53289">
        <ele>28.5</ele>
        <time>2014-01-09T07:42:24Z</time>
      </trkpt>
      <trkpt lat="48.85333" lon="2.53325">
        <ele>23.69</ele>
        <time>2014-01-09T07:42:42Z</time>
      </trkpt>
      <trkpt lat="48.85337" lon="2.53368">
        <ele>20.32</ele>
        <time>2014-01-09T07:43:02Z</time>
      </trkpt>
      <trkpt lat="48.85336" lon="2.53412">
        <ele>19.84</ele>
        <time>2014-01-09T07:43:23Z</time>
      </trkpt>
      <trkpt lat="48.85335" lon="2.5345">
        <ele>19.84</ele>
        <time>2014-01-09T07:43:44Z</time>
      </trkpt>
      <trkpt lat="48.85334" lon="2.53494">
        <ele>25.61</ele>
        <time>2014-01-09T07:44:03Z</time>
      </trkpt>
      <trkpt lat="48.85335" lon="2.53524">
        <ele>25.13</ele>
        <time>2014-01-09T07:44:17Z</time>
      </trkpt>
      <trkpt lat="48.85337" lon="2.53547">
        <ele>24.17</ele>
        <time>2014-01-09T07:44:31Z</time>
      </trkpt>
      <trkpt lat="48.85332" lon="2.53571">
        <ele>24.17</ele>
        <time>2014-01-09T07:44:43Z</time>
      </trkpt>
      <trkpt lat="48.8533" lon="2.53583">
        <ele>24.17</ele>
        <time>2014-01-09T07:44:51Z</time>
      </trkpt>
      <trkpt lat="48.85321" lon="2.53622">
        <ele>24.17</ele>
        <time>2014-01-09T07:45:07Z</time>
      </trkpt>
      <trkpt lat="48.8532" lon="2.53626">
        <ele>24.17</ele>
        <time>2014-01-09T07:45:09Z</time>
      </trkpt>
      <trkpt lat="48.85317" lon="2.53642">
        <ele>23.21</ele>
        <time>2014-01-09T07:45:21Z</time>
      </trkpt>
      <trkpt lat="48.85315" lon="2.5365">
        <ele>23.21</ele>
        <time>2014-01-09T07:45:25Z</time>
      </trkpt>
      <trkpt lat="48.85307" lon="2.53674">
        <ele>22.73</ele>
        <time>2014-01-09T07:45:35Z</time>
      </trkpt>
      <trkpt lat="48.85301" lon="2.53693">
        <ele>24.17</ele>
        <time>2014-01-09T07:45:47Z</time>
      </trkpt>
      <trkpt lat="48.85299" lon="2.53709">
        <ele>26.57</ele>
        <time>2014-01-09T07:46:02Z</time>
      </trkpt>
      <trkpt lat="48.85295" lon="2.53724">
        <ele>26.57</ele>
        <time>2014-01-09T07:46:15Z</time>
      </trkpt>
      <trkpt lat="48.85295" lon="2.5374">
        <ele>21.77</ele>
        <time>2014-01-09T07:46:32Z</time>
      </trkpt>
      <trkpt lat="48.85292" lon="2.53752">
        <ele>26.09</ele>
        <time>2014-01-09T07:46:55Z</time>
      </trkpt>
      <trkpt lat="48.85291" lon="2.53774">
        <ele>27.53</ele>
        <time>2014-01-09T07:47:07Z</time>
      </trkpt>
      <trkpt lat="48.85289" lon="2.53792">
        <ele>23.69</ele>
        <time>2014-01-09T07:47:17Z</time>
      </trkpt>
      <trkpt lat="48.85286" lon="2.53815">
        <ele>23.69</ele>
        <time>2014-01-09T07:47:34Z</time>
      </trkpt>
      <trkpt lat="48.85283" lon="2.53829">
        <ele>23.69</ele>
        <time>2014-01-09T07:47:47Z</time>
      </trkpt>
      <trkpt lat="48.85276" lon="2.53865">
        <ele>24.17</ele>
        <time>2014-01-09T07:48:08Z</time>
      </trkpt>
      <trkpt lat="48.85272" lon="2.53897">
        <ele>25.61</ele>
        <time>2014-01-09T07:48:21Z</time>
      </trkpt>
      <trkpt lat="48.85274" lon="2.53915">
        <ele>24.17</ele>
        <time>2014-01-09T07:48:34Z</time>
      </trkpt>
      <trkpt lat="48.85275" lon="2.53924">
        <ele>25.13</ele>
        <time>2014-01-09T07:48:46Z</time>
      </trkpt>
      <trkpt lat="48.85274" lon="2.53929">
        <ele>25.61</ele>
        <time>2014-01-09T07:48:52Z</time>
      </trkpt>
      <trkpt lat="48.8527" lon="2.53943">
        <ele>23.69</ele>
        <time>2014-01-09T07:49:02Z</time>
      </trkpt>
      <trkpt lat="48.85261" lon="2.53957">
        <ele>14.56</ele>
        <time>2014-01-09T07:49:14Z</time>
      </trkpt>
      <trkpt lat="48.85259" lon="2.53978">
        <ele>12.63</ele>
        <time>2014-01-09T07:49:27Z</time>
      </trkpt>
      <trkpt lat="48.85258" lon="2.54023">
        <ele>13.12</ele>
        <time>2014-01-09T07:49:45Z</time>
      </trkpt>
      <trkpt lat="48.85254" lon="2.54046">
        <ele>14.56</ele>
        <time>2014-01-09T07:50:01Z</time>
      </trkpt>
      <trkpt lat="48.85253" lon="2.54049">
        <ele>15.04</ele>
        <time>2014-01-09T07:50:03Z</time>
      </trkpt>
      <trkpt lat="48.85258" lon="2.5406">
        <ele>17.92</ele>
        <time>2014-01-09T07:50:08Z</time>
      </trkpt>
      <trkpt lat="48.85259" lon="2.54075">
        <ele>19.84</ele>
        <time>2014-01-09T07:50:13Z</time>
      </trkpt>
      <trkpt lat="48.85258" lon="2.54093">
        <ele>25.13</ele>
        <time>2014-01-09T07:50:20Z</time>
      </trkpt>
      <trkpt lat="48.8526" lon="2.54117">
        <ele>25.13</ele>
        <time>2014-01-09T07:50:34Z</time>
      </trkpt>
      <trkpt lat="48.85261" lon="2.54154">
        <ele>24.17</ele>
        <time>2014-01-09T07:50:49Z</time>
      </trkpt>
      <trkpt lat="48.85261" lon="2.54155">
        <ele>23.69</ele>
        <time>2014-01-09T07:50:50Z</time>
      </trkpt>
      <trkpt lat="48.85266" lon="2.54195">
        <ele>28.02</ele>
        <time>2014-01-09T07:51:09Z</time>
      </trkpt>
      <trkpt lat="48.85268" lon="2.54222">
        <ele>28.98</ele>
        <time>2014-01-09T07:51:25Z</time>
      </trkpt>
      <trkpt lat="48.85271" lon="2.54228">
        <ele>29.46</ele>
        <time>2014-01-09T07:51:29Z</time>
      </trkpt>
      <trkpt lat="48.85282" lon="2.54257">
        <ele>31.38</ele>
        <time>2014-01-09T07:51:49Z</time>
      </trkpt>
      <trkpt lat="48.85297" lon="2.54302">
        <ele>33.3</ele>
        <time>2014-01-09T07:52:13Z</time>
      </trkpt>
      <trkpt lat="48.85314" lon="2.54336">
        <ele>35.23</ele>
        <time>2014-01-09T07:52:34Z</time>
      </trkpt>
      <trkpt lat="48.85334" lon="2.54369">
        <ele>36.67</ele>
        <time>2014-01-09T07:52:56Z</time>
      </trkpt>
      <trkpt lat="48.85351" lon="2.54397">
        <ele>36.67</ele>
        <time>2014-01-09T07:53:17Z</time>
      </trkpt>
      <trkpt lat="48.85364" lon="2.54426">
        <ele>36.19</ele>
        <time>2014-01-09T07:53:31Z</time>
      </trkpt>
      <trkpt lat="48.85378" lon="2.54452">
        <ele>35.71</ele>
        <time>2014-01-09T07:53:48Z</time>
      </trkpt>
      <trkpt lat="48.8538" lon="2.54458">
        <ele>35.23</ele>
        <time>2014-01-09T07:53:53Z</time>
      </trkpt>
      <trkpt lat="48.85392" lon="2.54498">
        <ele>35.71</ele>
        <time>2014-01-09T07:54:11Z</time>
      </trkpt>
      <trkpt lat="48.85398" lon="2.5452">
        <ele>33.78</ele>
        <time>2014-01-09T07:54:28Z</time>
      </trkpt>
      <trkpt lat="48.85406" lon="2.54556">
        <ele>34.26</ele>
        <time>2014-01-09T07:54:43Z</time>
      </trkpt>
      <trkpt lat="48.8541" lon="2.54589">
        <ele>34.74</ele>
        <time>2014-01-09T07:55:00Z</time>
      </trkpt>
      <trkpt lat="48.85411" lon="2.54597">
        <ele>33.78</ele>
        <time>2014-01-09T07:55:06Z</time>
      </trkpt>
      <trkpt lat="48.85417" lon="2.54627">
        <ele>34.26</ele>
        <time>2014-01-09T07:55:21Z</time>
      </trkpt>
      <trkpt lat="48.85417" lon="2.54656">
        <ele>30.42</ele>
        <time>2014-01-09T07:55:36Z</time>
      </trkpt>
      <trkpt lat="48.85417" lon="2.54668">
        <ele>29.94</ele>
        <time>2014-01-09T07:55:44Z</time>
      </trkpt>
      <trkpt lat="48.85418" lon="2.54677">
        <ele>29.94</ele>
        <time>2014-01-09T07:55:48Z</time>
      </trkpt>
      <trkpt lat="48.85419" lon="2.54712">
        <ele>29.46</ele>
        <time>2014-01-09T07:56:05Z</time>
      </trkpt>
      <trkpt lat="48.8542" lon="2.54719">
        <ele>29.94</ele>
        <time>2014-01-09T07:56:08Z</time>
      </trkpt>
      <trkpt lat="48.8542" lon="2.54753">
        <ele>30.42</ele>
        <time>2014-01-09T07:56:24Z</time>
      </trkpt>
      <trkpt lat="48.8542" lon="2.54757">
        <ele>30.42</ele>
        <time>2014-01-09T07:56:27Z</time>
      </trkpt>
      <trkpt lat="48.85421" lon="2.54775">
        <ele>31.38</ele>
        <time>2014-01-09T07:56:35Z</time>
      </trkpt>
      <trkpt lat="48.85418" lon="2.54804">
        <ele>30.42</ele>
        <time>2014-01-09T07:56:50Z</time>
      </trkpt>
      <trkpt lat="48.85418" lon="2.54809">
        <ele>30.9</ele>
        <time>2014-01-09T07:56:53Z</time>
      </trkpt>
      <trkpt lat="48.85415" lon="2.54831">
        <ele>32.34</ele>
        <time>2014-01-09T07:57:04Z</time>
      </trkpt>
      <trkpt lat="48.85416" lon="2.5484">
        <ele>32.34</ele>
        <time>2014-01-09T07:57:08Z</time>
      </trkpt>
      <trkpt lat="48.85419" lon="2.54869">
        <ele>30.42</ele>
        <time>2014-01-09T07:57:24Z</time>
      </trkpt>
      <trkpt lat="48.8542" lon="2.54903">
        <ele>30.42</ele>
        <time>2014-01-09T07:57:39Z</time>
      </trkpt>
      <trkpt lat="48.8542" lon="2.54923">
        <ele>28.02</ele>
        <time>2014-01-09T07:57:51Z</time>
      </trkpt>
      <trkpt lat="48.85422" lon="2.54961">
        <ele>29.46</ele>
        <time>2014-01-09T07:58:07Z</time>
      </trkpt>
      <trkpt lat="48.85424" lon="2.54989">
        <ele>29.94</ele>
        <time>2014-01-09T07:58:23Z</time>
      </trkpt>
      <trkpt lat="48.85426" lon="2.55025">
        <ele>28.5</ele>
        <time>2014-01-09T07:58:39Z</time>
      </trkpt>
      <trkpt lat="48.85425" lon="2.55051">
        <ele>29.94</ele>
        <time>2014-01-09T07:58:55Z</time>
      </trkpt>
      <trkpt lat="48.85427" lon="2.55071">
        <ele>30.9</ele>
        <time>2014-01-09T07:59:03Z</time>
      </trkpt>
      <trkpt lat="48.85428" lon="2.55078">
        <ele>30.42</ele>
        <time>2014-01-09T07:59:06Z</time>
      </trkpt>
      <trkpt lat="48.85428" lon="2.55095">
        <ele>29.46</ele>
        <time>2014-01-09T07:59:16Z</time>
      </trkpt>
      <trkpt lat="48.85428" lon="2.55102">
        <ele>30.42</ele>
        <time>2014-01-09T07:59:20Z</time>
      </trkpt>
      <trkpt lat="48.85427" lon="2.55134">
        <ele>30.9</ele>
        <time>2014-01-09T07:59:34Z</time>
      </trkpt>
      <trkpt lat="48.85428" lon="2.55161">
        <ele>28.98</ele>
        <time>2014-01-09T07:59:47Z</time>
      </trkpt>
      <trkpt lat="48.85428" lon="2.55189">
        <ele>26.09</ele>
        <time>2014-01-09T08:00:01Z</time>
      </trkpt>
      <trkpt lat="48.85428" lon="2.55198">
        <ele>27.53</ele>
        <time>2014-01-09T08:00:07Z</time>
      </trkpt>
      <trkpt lat="48.85428" lon="2.55209">
        <ele>28.5</ele>
        <time>2014-01-09T08:00:12Z</time>
      </trkpt>
      <trkpt lat="48.85428" lon="2.55232">
        <ele>25.61</ele>
        <time>2014-01-09T08:00:22Z</time>
      </trkpt>
      <trkpt lat="48.85425" lon="2.55256">
        <ele>27.05</ele>
        <time>2014-01-09T08:00:36Z</time>
      </trkpt>
      <trkpt lat="48.85422" lon="2.55287">
        <ele>26.09</ele>
        <time>2014-01-09T08:00:49Z</time>
      </trkpt>
      <trkpt lat="48.8542" lon="2.55314">
        <ele>26.09</ele>
        <time>2014-01-09T08:01:07Z</time>
      </trkpt>
      <trkpt lat="48.8542" lon="2.55323">
        <ele>25.61</ele>
        <time>2014-01-09T08:01:11Z</time>
      </trkpt>
      <trkpt lat="48.85414" lon="2.55358">
        <ele>24.65</ele>
        <time>2014-01-09T08:01:28Z</time>
      </trkpt>
      <trkpt lat="48.85415" lon="2.55365">
        <ele>26.57</ele>
        <time>2014-01-09T08:01:32Z</time>
      </trkpt>
      <trkpt lat="48.85414" lon="2.55381">
        <ele>28.5</ele>
        <time>2014-01-09T08:01:39Z</time>
      </trkpt>
      <trkpt lat="48.85408" lon="2.55415">
        <ele>28.02</ele>
        <time>2014-01-09T08:01:57Z</time>
      </trkpt>
      <trkpt lat="48.85409" lon="2.55423">
        <ele>28.5</ele>
        <time>2014-01-09T08:02:01Z</time>
      </trkpt>
      <trkpt lat="48.85408" lon="2.55459">
        <ele>28.98</ele>
        <time>2014-01-09T08:02:17Z</time>
      </trkpt>
      <trkpt lat="48.85407" lon="2.55483">
        <ele>28.98</ele>
        <time>2014-01-09T08:02:31Z</time>
      </trkpt>
      <trkpt lat="48.85404" lon="2.55512">
        <ele>31.86</ele>
        <time>2014-01-09T08:02:44Z</time>
      </trkpt>
      <trkpt lat="48.85401" lon="2.55527">
        <ele>32.34</ele>
        <time>2014-01-09T08:02:53Z</time>
      </trkpt>
      <trkpt lat="48.85399" lon="2.55539">
        <ele>33.3</ele>
        <time>2014-01-09T08:02:59Z</time>
      </trkpt>
      <trkpt lat="48.85393" lon="2.55574">
        <ele>31.38</ele>
        <time>2014-01-09T08:03:15Z</time>
      </trkpt>
      <trkpt lat="48.85388" lon="2.55604">
        <ele>31.38</ele>
        <time>2014-01-09T08:03:30Z</time>
      </trkpt>
      <trkpt lat="48.85384" lon="2.55635">
        <ele>29.46</ele>
        <time>2014-01-09T08:03:47Z</time>
      </trkpt>
      <trkpt lat="48.85378" lon="2.55662">
        <ele>28.02</ele>
        <time>2014-01-09T08:04:01Z</time>
      </trkpt>
      <trkpt lat="48.85378" lon="2.55669">
        <ele>28.5</ele>
        <time>2014-01-09T08:04:05Z</time>
      </trkpt>
      <trkpt lat="48.85375" lon="2.55691">
        <ele>29.94</ele>
        <time>2014-01-09T08:04:15Z</time>
      </trkpt>
      <trkpt lat="48.8537" lon="2.55711">
        <ele>28.98</ele>
        <time>2014-01-09T08:04:31Z</time>
      </trkpt>
      <trkpt lat="48.8537" lon="2.55721">
        <ele>27.53</ele>
        <time>2014-01-09T08:04:46Z</time>
      </trkpt>
      <trkpt lat="48.85363" lon="2.5575">
        <ele>27.53</ele>
        <time>2014-01-09T08:05:02Z</time>
      </trkpt>
      <trkpt lat="48.85361" lon="2.55766">
        <ele>28.02</ele>
        <time>2014-01-09T08:05:12Z</time>
      </trkpt>
      <trkpt lat="48.85359" lon="2.55787">
        <ele>27.53</ele>
        <time>2014-01-09T08:05:23Z</time>
      </trkpt>
      <trkpt lat="48.85357" lon="2.55815">
        <ele>26.09</ele>
        <time>2014-01-09T08:05:37Z</time>
      </trkpt>
      <trkpt lat="48.85355" lon="2.55835">
        <ele>27.53</ele>
        <time>2014-01-09T08:05:48Z</time>
      </trkpt>
      <trkpt lat="48.85355" lon="2.5586">
        <ele>28.02</ele>
        <time>2014-01-09T08:06:01Z</time>
      </trkpt>
      <trkpt lat="48.85354" lon="2.55878">
        <ele>28.98</ele>
        <time>2014-01-09T08:06:09Z</time>
      </trkpt>
      <trkpt lat="48.85354" lon="2.55884">
        <ele>29.46</ele>
        <time>2014-01-09T08:06:12Z</time>
      </trkpt>
      <trkpt lat="48.85355" lon="2.55911">
        <ele>28.02</ele>
        <time>2014-01-09T08:06:26Z</time>
      </trkpt>
      <trkpt lat="48.85353" lon="2.55932">
        <ele>27.05</ele>
        <time>2014-01-09T08:06:35Z</time>
      </trkpt>
      <trkpt lat="48.85353" lon="2.55952">
        <ele>27.05</ele>
        <time>2014-01-09T08:06:44Z</time>
      </trkpt>
      <trkpt lat="48.85351" lon="2.55982">
        <ele>24.17</ele>
        <time>2014-01-09T08:07:00Z</time>
      </trkpt>
      <trkpt lat="48.8535" lon="2.56015">
        <ele>26.09</ele>
        <time>2014-01-09T08:07:16Z</time>
      </trkpt>
      <trkpt lat="48.8535" lon="2.5604">
        <ele>27.53</ele>
        <time>2014-01-09T08:07:30Z</time>
      </trkpt>
      <trkpt lat="48.85349" lon="2.56069">
        <ele>25.13</ele>
        <time>2014-01-09T08:07:44Z</time>
      </trkpt>
      <trkpt lat="48.85352" lon="2.56092">
        <ele>21.77</ele>
        <time>2014-01-09T08:07:57Z</time>
      </trkpt>
      <trkpt lat="48.85352" lon="2.56115">
        <ele>21.29</ele>
        <time>2014-01-09T08:08:13Z</time>
      </trkpt>
      <trkpt lat="48.85354" lon="2.5614">
        <ele>19.84</ele>
        <time>2014-01-09T08:08:26Z</time>
      </trkpt>
      <trkpt lat="48.85359" lon="2.56166">
        <ele>16</ele>
        <time>2014-01-09T08:08:42Z</time>
      </trkpt>
      <trkpt lat="48.85361" lon="2.56188">
        <ele>13.12</ele>
        <time>2014-01-09T08:08:56Z</time>
      </trkpt>
      <trkpt lat="48.85365" lon="2.56219">
        <ele>14.56</ele>
        <time>2014-01-09T08:09:09Z</time>
      </trkpt>
      <trkpt lat="48.85368" lon="2.56239">
        <ele>16</ele>
        <time>2014-01-09T08:09:19Z</time>
      </trkpt>
      <trkpt lat="48.85372" lon="2.56274">
        <ele>18.4</ele>
        <time>2014-01-09T08:09:32Z</time>
      </trkpt>
      <trkpt lat="48.85373" lon="2.56277">
        <ele>17.92</ele>
        <time>2014-01-09T08:09:34Z</time>
      </trkpt>
      <trkpt lat="48.85386" lon="2.5632">
        <ele>25.61</ele>
        <time>2014-01-09T08:09:53Z</time>
      </trkpt>
      <trkpt lat="48.85395" lon="2.56353">
        <ele>27.53</ele>
        <time>2014-01-09T08:10:09Z</time>
      </trkpt>
      <trkpt lat="48.85404" lon="2.56382">
        <ele>28.02</ele>
        <time>2014-01-09T08:10:24Z</time>
      </trkpt>
      <trkpt lat="48.85413" lon="2.56406">
        <ele>27.53</ele>
        <time>2014-01-09T08:10:39Z</time>
      </trkpt>
      <trkpt lat="48.85424" lon="2.56429">
        <ele>26.57</ele>
        <time>2014-01-09T08:10:55Z</time>
      </trkpt>
      <trkpt lat="48.85434" lon="2.56454">
        <ele>26.57</ele>
        <time>2014-01-09T08:11:11Z</time>
      </trkpt>
      <trkpt lat="48.85445" lon="2.56481">
        <ele>25.61</ele>
        <time>2014-01-09T08:11:27Z</time>
      </trkpt>
      <trkpt lat="48.85452" lon="2.56515">
        <ele>25.61</ele>
        <time>2014-01-09T08:11:43Z</time>
      </trkpt>
      <trkpt lat="48.85455" lon="2.5654">
        <ele>26.09</ele>
        <time>2014-01-09T08:11:55Z</time>
      </trkpt>
      <trkpt lat="48.85457" lon="2.56546">
        <ele>24.65</ele>
        <time>2014-01-09T08:12:00Z</time>
      </trkpt>
      <trkpt lat="48.85464" lon="2.56581">
        <ele>23.21</ele>
        <time>2014-01-09T08:12:18Z</time>
      </trkpt>
      <trkpt lat="48.8547" lon="2.56613">
        <ele>26.57</ele>
        <time>2014-01-09T08:12:34Z</time>
      </trkpt>
      <trkpt lat="48.85473" lon="2.56629">
        <ele>29.46</ele>
        <time>2014-01-09T08:12:49Z</time>
      </trkpt>
      <trkpt lat="48.85478" lon="2.56643">
        <ele>27.05</ele>
        <time>2014-01-09T08:13:04Z</time>
      </trkpt>
      <trkpt lat="48.85481" lon="2.56658">
        <ele>26.57</ele>
        <time>2014-01-09T08:13:21Z</time>
      </trkpt>
      <trkpt lat="48.85484" lon="2.56674">
        <ele>29.94</ele>
        <time>2014-01-09T08:13:33Z</time>
      </trkpt>
      <trkpt lat="48.85486" lon="2.56681">
        <ele>31.86</ele>
        <time>2014-01-09T08:13:43Z</time>
      </trkpt>
      <trkpt lat="48.85494" lon="2.56709">
        <ele>33.3</ele>
        <time>2014-01-09T08:13:56Z</time>
      </trkpt>
      <trkpt lat="48.85507" lon="2.56737">
        <ele>32.34</ele>
        <time>2014-01-09T08:14:13Z</time>
      </trkpt>
      <trkpt lat="48.85524" lon="2.56766">
        <ele>28.98</ele>
        <time>2014-01-09T08:14:32Z</time>
      </trkpt>
      <trkpt lat="48.85537" lon="2.56781">
        <ele>26.57</ele>
        <time>2014-01-09T08:14:46Z</time>
      </trkpt>
      <trkpt lat="48.85557" lon="2.568">
        <ele>26.09</ele>
        <time>2014-01-09T08:15:03Z</time>
      </trkpt>
      <trkpt lat="48.85578" lon="2.56812">
        <ele>26.09</ele>
        <time>2014-01-09T08:15:22Z</time>
      </trkpt>
      <trkpt lat="48.85601" lon="2.56823">
        <ele>29.94</ele>
        <time>2014-01-09T08:15:39Z</time>
      </trkpt>
      <trkpt lat="48.85607" lon="2.56827">
        <ele>30.42</ele>
        <time>2014-01-09T08:15:43Z</time>
      </trkpt>
      <trkpt lat="48.85633" lon="2.56835">
        <ele>30.9</ele>
        <time>2014-01-09T08:16:02Z</time>
      </trkpt>
      <trkpt lat="48.85657" lon="2.56836">
        <ele>33.3</ele>
        <time>2014-01-09T08:16:21Z</time>
      </trkpt>
      <trkpt lat="48.85683" lon="2.56831">
        <ele>32.82</ele>
        <time>2014-01-09T08:16:40Z</time>
      </trkpt>
      <trkpt lat="48.85702" lon="2.56825">
        <ele>34.26</ele>
        <time>2014-01-09T08:16:56Z</time>
      </trkpt>
      <trkpt lat="48.85717" lon="2.56822">
        <ele>30.9</ele>
        <time>2014-01-09T08:17:09Z</time>
      </trkpt>
      <trkpt lat="48.85737" lon="2.56815">
        <ele>26.57</ele>
        <time>2014-01-09T08:17:25Z</time>
      </trkpt>
      <trkpt lat="48.85758" lon="2.56799">
        <ele>21.77</ele>
        <time>2014-01-09T08:17:40Z</time>
      </trkpt>
      <trkpt lat="48.85773" lon="2.56783">
        <ele>19.84</ele>
        <time>2014-01-09T08:17:52Z</time>
      </trkpt>
      <trkpt lat="48.85792" lon="2.56762">
        <ele>13.6</ele>
        <time>2014-01-09T08:18:11Z</time>
      </trkpt>
      <trkpt lat="48.85813" lon="2.56744">
        <ele>15.04</ele>
        <time>2014-01-09T08:18:28Z</time>
      </trkpt>
      <trkpt lat="48.85829" lon="2.56733">
        <ele>16.48</ele>
        <time>2014-01-09T08:18:44Z</time>
      </trkpt>
      <trkpt lat="48.85854" lon="2.56724">
        <ele>16</ele>
        <time>2014-01-09T08:19:02Z</time>
      </trkpt>
      <trkpt lat="48.85866" lon="2.56717">
        <ele>16.48</ele>
        <time>2014-01-09T08:19:13Z</time>
      </trkpt>
      <trkpt lat="48.85885" lon="2.56702">
        <ele>19.36</ele>
        <time>2014-01-09T08:19:28Z</time>
      </trkpt>
      <trkpt lat="48.85904" lon="2.5669">
        <ele>16</ele>
        <time>2014-01-09T08:19:43Z</time>
      </trkpt>
      <trkpt lat="48.85921" lon="2.56682">
        <ele>13.12</ele>
        <time>2014-01-09T08:19:57Z</time>
      </trkpt>
      <trkpt lat="48.85935" lon="2.56673">
        <ele>11.19</ele>
        <time>2014-01-09T08:20:11Z</time>
      </trkpt>
      <trkpt lat="48.85936" lon="2.56672">
        <ele>11.19</ele>
        <time>2014-01-09T08:20:12Z</time>
      </trkpt>
      <trkpt lat="48.85956" lon="2.56666">
        <ele>14.08</ele>
        <time>2014-01-09T08:20:27Z</time>
      </trkpt>
      <trkpt lat="48.8598" lon="2.56661">
        <ele>26.09</ele>
        <time>2014-01-09T08:20:44Z</time>
      </trkpt>
      <trkpt lat="48.85994" lon="2.56658">
        <ele>28.02</ele>
        <time>2014-01-09T08:20:55Z</time>
      </trkpt>
      <trkpt lat="48.86012" lon="2.56659">
        <ele>36.19</ele>
        <time>2014-01-09T08:21:08Z</time>
      </trkpt>
      <trkpt lat="48.86013" lon="2.56659">
        <ele>37.15</ele>
        <time>2014-01-09T08:21:10Z</time>
      </trkpt>
      <trkpt lat="48.86031" lon="2.56654">
        <ele>40.99</ele>
        <time>2014-01-09T08:21:23Z</time>
      </trkpt>
      <trkpt lat="48.8604" lon="2.5665">
        <ele>40.51</ele>
        <time>2014-01-09T08:21:32Z</time>
      </trkpt>
      <trkpt lat="48.86043" lon="2.56647">
        <ele>40.51</ele>
        <time>2014-01-09T08:21:35Z</time>
      </trkpt>
      <trkpt lat="48.86069" lon="2.56646">
        <ele>39.07</ele>
        <time>2014-01-09T08:21:51Z</time>
      </trkpt>
      <trkpt lat="48.86094" lon="2.56636">
        <ele>38.59</ele>
        <time>2014-01-09T08:22:11Z</time>
      </trkpt>
      <trkpt lat="48.86115" lon="2.56624">
        <ele>35.71</ele>
        <time>2014-01-09T08:22:28Z</time>
      </trkpt>
      <trkpt lat="48.86128" lon="2.56613">
        <ele>34.26</ele>
        <time>2014-01-09T08:22:42Z</time>
      </trkpt>
      <trkpt lat="48.86134" lon="2.56608">
        <ele>27.05</ele>
        <time>2014-01-09T08:22:59Z</time>
      </trkpt>
      <trkpt lat="48.86141" lon="2.56599">
        <ele>20.81</ele>
        <time>2014-01-09T08:23:13Z</time>
      </trkpt>
      <trkpt lat="48.86149" lon="2.56594">
        <ele>18.88</ele>
        <time>2014-01-09T08:23:29Z</time>
      </trkpt>
      <trkpt lat="48.8615" lon="2.56593">
        <ele>18.88</ele>
        <time>2014-01-09T08:23:30Z</time>
      </trkpt>
      <trkpt lat="48.86164" lon="2.5657">
        <ele>3.02</ele>
        <time>2014-01-09T08:23:45Z</time>
      </trkpt>
      <trkpt lat="48.86167" lon="2.56562">
        <ele>0.62</ele>
        <time>2014-01-09T08:23:49Z</time>
      </trkpt>
      <trkpt lat="48.86185" lon="2.56542">
        <ele>1.58</ele>
        <time>2014-01-09T08:24:00Z</time>
      </trkpt>
      <trkpt lat="48.86198" lon="2.56527">
        <ele>3.5</ele>
        <time>2014-01-09T08:24:07Z</time>
      </trkpt>
      <trkpt lat="48.8622" lon="2.56512">
        <ele>9.27</ele>
        <time>2014-01-09T08:24:22Z</time>
      </trkpt>
      <trkpt lat="48.8623" lon="2.56507">
        <ele>15.04</ele>
        <time>2014-01-09T08:24:33Z</time>
      </trkpt>
      <trkpt lat="48.86239" lon="2.56512">
        <ele>18.4</ele>
        <time>2014-01-09T08:24:43Z</time>
      </trkpt>
      <trkpt lat="48.86261" lon="2.56525">
        <ele>27.05</ele>
        <time>2014-01-09T08:25:01Z</time>
      </trkpt>
      <trkpt lat="48.86276" lon="2.56541">
        <ele>27.05</ele>
        <time>2014-01-09T08:25:13Z</time>
      </trkpt>
      <trkpt lat="48.86287" lon="2.56556">
        <ele>24.65</ele>
        <time>2014-01-09T08:25:23Z</time>
      </trkpt>
      <trkpt lat="48.86299" lon="2.56574">
        <ele>19.84</ele>
        <time>2014-01-09T08:25:39Z</time>
      </trkpt>
      <trkpt lat="48.86302" lon="2.56576">
        <ele>20.32</ele>
        <time>2014-01-09T08:25:43Z</time>
      </trkpt>
      <trkpt lat="48.86307" lon="2.56581">
        <ele>20.81</ele>
        <time>2014-01-09T08:25:49Z</time>
      </trkpt>
      <trkpt lat="48.86318" lon="2.5661">
        <ele>22.73</ele>
        <time>2014-01-09T08:26:07Z</time>
      </trkpt>
      <trkpt lat="48.8632" lon="2.56616">
        <ele>22.73</ele>
        <time>2014-01-09T08:26:11Z</time>
      </trkpt>
      <trkpt lat="48.86336" lon="2.56653">
        <ele>25.13</ele>
        <time>2014-01-09T08:26:27Z</time>
      </trkpt>
      <trkpt lat="48.86344" lon="2.56676">
        <ele>26.09</ele>
        <time>2014-01-09T08:26:44Z</time>
      </trkpt>
      <trkpt lat="48.86346" lon="2.56679">
        <ele>27.05</ele>
        <time>2014-01-09T08:26:46Z</time>
      </trkpt>
      <trkpt lat="48.8635" lon="2.56686">
        <ele>28.02</ele>
        <time>2014-01-09T08:26:50Z</time>
      </trkpt>
      <trkpt lat="48.86362" lon="2.56718">
        <ele>31.86</ele>
        <time>2014-01-09T08:27:05Z</time>
      </trkpt>
      <trkpt lat="48.86368" lon="2.56733">
        <ele>32.82</ele>
        <time>2014-01-09T08:27:17Z</time>
      </trkpt>
      <trkpt lat="48.86373" lon="2.56746">
        <ele>35.23</ele>
        <time>2014-01-09T08:27:24Z</time>
      </trkpt>
      <trkpt lat="48.86385" lon="2.56782">
        <ele>32.82</ele>
        <time>2014-01-09T08:27:42Z</time>
      </trkpt>
      <trkpt lat="48.86394" lon="2.568">
        <ele>32.82</ele>
        <time>2014-01-09T08:27:55Z</time>
      </trkpt>
      <trkpt lat="48.86396" lon="2.56821">
        <ele>32.82</ele>
        <time>2014-01-09T08:28:02Z</time>
      </trkpt>
      <trkpt lat="48.86403" lon="2.56846">
        <ele>32.34</ele>
        <time>2014-01-09T08:28:18Z</time>
      </trkpt>
      <trkpt lat="48.86409" lon="2.56879">
        <ele>31.38</ele>
        <time>2014-01-09T08:28:33Z</time>
      </trkpt>
      <trkpt lat="48.86413" lon="2.5689">
        <ele>31.38</ele>
        <time>2014-01-09T08:28:42Z</time>
      </trkpt>
      <trkpt lat="48.86416" lon="2.56898">
        <ele>31.38</ele>
        <time>2014-01-09T08:28:46Z</time>
      </trkpt>
      <trkpt lat="48.8642" lon="2.5692">
        <ele>30.42</ele>
        <time>2014-01-09T08:28:57Z</time>
      </trkpt>
      <trkpt lat="48.86426" lon="2.56944">
        <ele>30.9</ele>
        <time>2014-01-09T08:29:12Z</time>
      </trkpt>
      <trkpt lat="48.8643" lon="2.56978">
        <ele>31.86</ele>
        <time>2014-01-09T08:29:25Z</time>
      </trkpt>
      <trkpt lat="48.86436" lon="2.57001">
        <ele>31.38</ele>
        <time>2014-01-09T08:29:40Z</time>
      </trkpt>
      <trkpt lat="48.86441" lon="2.57035">
        <ele>33.3</ele>
        <time>2014-01-09T08:29:57Z</time>
      </trkpt>
      <trkpt lat="48.86445" lon="2.57059">
        <ele>32.34</ele>
        <time>2014-01-09T08:30:11Z</time>
      </trkpt>
      <trkpt lat="48.86456" lon="2.57092">
        <ele>30.9</ele>
        <time>2014-01-09T08:30:28Z</time>
      </trkpt>
      <trkpt lat="48.86457" lon="2.57115">
        <ele>29.94</ele>
        <time>2014-01-09T08:30:41Z</time>
      </trkpt>
      <trkpt lat="48.86459" lon="2.57121">
        <ele>30.42</ele>
        <time>2014-01-09T08:30:44Z</time>
      </trkpt>
      <trkpt lat="48.86464" lon="2.57153">
        <ele>30.9</ele>
        <time>2014-01-09T08:30:59Z</time>
      </trkpt>
      <trkpt lat="48.86471" lon="2.57191">
        <ele>32.82</ele>
        <time>2014-01-09T08:31:15Z</time>
      </trkpt>
      <trkpt lat="48.86474" lon="2.57214">
        <ele>33.78</ele>
        <time>2014-01-09T08:31:27Z</time>
      </trkpt>
      <trkpt lat="48.86474" lon="2.57218">
        <ele>33.78</ele>
        <time>2014-01-09T08:31:31Z</time>
      </trkpt>
      <trkpt lat="48.86479" lon="2.5725">
        <ele>31.86</ele>
        <time>2014-01-09T08:31:45Z</time>
      </trkpt>
      <trkpt lat="48.8648" lon="2.57261">
        <ele>32.34</ele>
        <time>2014-01-09T08:31:50Z</time>
      </trkpt>
      <trkpt lat="48.86484" lon="2.5729">
        <ele>32.82</ele>
        <time>2014-01-09T08:32:06Z</time>
      </trkpt>
      <trkpt lat="48.86486" lon="2.573">
        <ele>30.9</ele>
        <time>2014-01-09T08:32:24Z</time>
      </trkpt>
      <trkpt lat="48.86494" lon="2.57327">
        <ele>32.34</ele>
        <time>2014-01-09T08:32:40Z</time>
      </trkpt>
      <trkpt lat="48.86495" lon="2.57339">
        <ele>33.3</ele>
        <time>2014-01-09T08:32:46Z</time>
      </trkpt>
      <trkpt lat="48.86496" lon="2.57357">
        <ele>32.82</ele>
        <time>2014-01-09T08:32:54Z</time>
      </trkpt>
      <trkpt lat="48.86498" lon="2.57387">
        <ele>32.34</ele>
        <time>2014-01-09T08:33:12Z</time>
      </trkpt>
      <trkpt lat="48.86498" lon="2.57403">
        <ele>31.86</ele>
        <time>2014-01-09T08:33:18Z</time>
      </trkpt>
      <trkpt lat="48.86501" lon="2.57426">
        <ele>28.98</ele>
        <time>2014-01-09T08:33:32Z</time>
      </trkpt>
      <trkpt lat="48.86508" lon="2.57453">
        <ele>26.09</ele>
        <time>2014-01-09T08:33:45Z</time>
      </trkpt>
      <trkpt lat="48.8651" lon="2.5746">
        <ele>25.61</ele>
        <time>2014-01-09T08:33:48Z</time>
      </trkpt>
      <trkpt lat="48.8651" lon="2.57465">
        <ele>25.13</ele>
        <time>2014-01-09T08:33:51Z</time>
      </trkpt>
      <trkpt lat="48.86507" lon="2.57493">
        <ele>23.21</ele>
        <time>2014-01-09T08:34:08Z</time>
      </trkpt>
      <trkpt lat="48.86507" lon="2.57504">
        <ele>22.73</ele>
        <time>2014-01-09T08:34:13Z</time>
      </trkpt>
      <trkpt lat="48.86508" lon="2.57509">
        <ele>23.21</ele>
        <time>2014-01-09T08:34:15Z</time>
      </trkpt>
      <trkpt lat="48.86503" lon="2.57537">
        <ele>24.17</ele>
        <time>2014-01-09T08:34:30Z</time>
      </trkpt>
      <trkpt lat="48.86498" lon="2.57542">
        <ele>24.17</ele>
        <time>2014-01-09T08:34:34Z</time>
      </trkpt>
      <trkpt lat="48.86488" lon="2.5756">
        <ele>24.17</ele>
        <time>2014-01-09T08:34:46Z</time>
      </trkpt>
      <trkpt lat="48.8649" lon="2.57573">
        <ele>23.69</ele>
        <time>2014-01-09T08:34:52Z</time>
      </trkpt>
      <trkpt lat="48.86487" lon="2.57608">
        <ele>26.09</ele>
        <time>2014-01-09T08:35:08Z</time>
      </trkpt>
      <trkpt lat="48.86488" lon="2.57641">
        <ele>27.53</ele>
        <time>2014-01-09T08:35:22Z</time>
      </trkpt>
      <trkpt lat="48.86488" lon="2.5767">
        <ele>27.05</ele>
        <time>2014-01-09T08:35:38Z</time>
      </trkpt>
      <trkpt lat="48.86487" lon="2.57701">
        <ele>31.38</ele>
        <time>2014-01-09T08:35:53Z</time>
      </trkpt>
      <trkpt lat="48.86486" lon="2.57735">
        <ele>28.98</ele>
        <time>2014-01-09T08:36:09Z</time>
      </trkpt>
      <trkpt lat="48.86485" lon="2.57751">
        <ele>28.02</ele>
        <time>2014-01-09T08:36:20Z</time>
      </trkpt>
      <trkpt lat="48.86487" lon="2.5776">
        <ele>28.98</ele>
        <time>2014-01-09T08:36:24Z</time>
      </trkpt>
      <trkpt lat="48.86485" lon="2.57789">
        <ele>29.46</ele>
        <time>2014-01-09T08:36:41Z</time>
      </trkpt>
      <trkpt lat="48.86486" lon="2.57807">
        <ele>28.98</ele>
        <time>2014-01-09T08:37:03Z</time>
      </trkpt>
      <trkpt lat="48.86486" lon="2.57847">
        <ele>28.5</ele>
        <time>2014-01-09T08:37:22Z</time>
      </trkpt>
      <trkpt lat="48.86488" lon="2.57896">
        <ele>25.61</ele>
        <time>2014-01-09T08:37:46Z</time>
      </trkpt>
      <trkpt lat="48.86495" lon="2.57915">
        <ele>23.69</ele>
        <time>2014-01-09T08:38:04Z</time>
      </trkpt>
      <trkpt lat="48.86495" lon="2.57935">
        <ele>24.17</ele>
        <time>2014-01-09T08:38:33Z</time>
      </trkpt>
      <trkpt lat="48.86501" lon="2.57977">
        <ele>22.25</ele>
        <time>2014-01-09T08:38:53Z</time>
      </trkpt>
      <trkpt lat="48.86504" lon="2.57991">
        <ele>22.25</ele>
        <time>2014-01-09T08:39:00Z</time>
      </trkpt>
      <trkpt lat="48.86506" lon="2.58017">
        <ele>28.98</ele>
        <time>2014-01-09T08:39:13Z</time>
      </trkpt>
      <trkpt lat="48.86508" lon="2.58032">
        <ele>28.98</ele>
        <time>2014-01-09T08:39:25Z</time>
      </trkpt>
      <trkpt lat="48.86509" lon="2.58034">
        <ele>26.09</ele>
        <time>2014-01-09T08:39:41Z</time>
      </trkpt>
      <trkpt lat="48.8651" lon="2.58042">
        <ele>26.57</ele>
        <time>2014-01-09T08:39:49Z</time>
      </trkpt>
      <trkpt lat="48.86513" lon="2.58068">
        <ele>29.94</ele>
        <time>2014-01-09T08:40:03Z</time>
      </trkpt>
      <trkpt lat="48.86514" lon="2.58099">
        <ele>28.5</ele>
        <time>2014-01-09T08:40:16Z</time>
      </trkpt>
      <trkpt lat="48.86515" lon="2.58122">
        <ele>27.05</ele>
        <time>2014-01-09T08:40:31Z</time>
      </trkpt>
      <trkpt lat="48.86515" lon="2.58159">
        <ele>28.5</ele>
        <time>2014-01-09T08:40:46Z</time>
      </trkpt>
      <trkpt lat="48.86516" lon="2.58197">
        <ele>28.5</ele>
        <time>2014-01-09T08:41:05Z</time>
      </trkpt>
      <trkpt lat="48.86518" lon="2.58225">
        <ele>29.46</ele>
        <time>2014-01-09T08:41:22Z</time>
      </trkpt>
      <trkpt lat="48.86517" lon="2.58236">
        <ele>29.94</ele>
        <time>2014-01-09T08:41:26Z</time>
      </trkpt>
      <trkpt lat="48.86517" lon="2.58263">
        <ele>28.5</ele>
        <time>2014-01-09T08:41:40Z</time>
      </trkpt>
      <trkpt lat="48.86519" lon="2.58277">
        <ele>28.98</ele>
        <time>2014-01-09T08:41:49Z</time>
      </trkpt>
      <trkpt lat="48.86516" lon="2.58318">
        <ele>30.42</ele>
        <time>2014-01-09T08:42:06Z</time>
      </trkpt>
      <trkpt lat="48.86511" lon="2.5834">
        <ele>29.94</ele>
        <time>2014-01-09T08:42:22Z</time>
      </trkpt>
      <trkpt lat="48.86511" lon="2.58341">
        <ele>30.42</ele>
        <time>2014-01-09T08:42:23Z</time>
      </trkpt>
      <trkpt lat="48.86505" lon="2.58373">
        <ele>29.46</ele>
        <time>2014-01-09T08:42:38Z</time>
      </trkpt>
      <trkpt lat="48.86504" lon="2.58388">
        <ele>29.46</ele>
        <time>2014-01-09T08:42:48Z</time>
      </trkpt>
      <trkpt lat="48.865" lon="2.58411">
        <ele>28.02</ele>
        <time>2014-01-09T08:42:56Z</time>
      </trkpt>
      <trkpt lat="48.86495" lon="2.58432">
        <ele>27.05</ele>
        <time>2014-01-09T08:43:10Z</time>
      </trkpt>
      <trkpt lat="48.86495" lon="2.58439">
        <ele>26.57</ele>
        <time>2014-01-09T08:43:14Z</time>
      </trkpt>
      <trkpt lat="48.86481" lon="2.58477">
        <ele>27.53</ele>
        <time>2014-01-09T08:43:34Z</time>
      </trkpt>
      <trkpt lat="48.86475" lon="2.58498">
        <ele>28.02</ele>
        <time>2014-01-09T08:43:47Z</time>
      </trkpt>
      <trkpt lat="48.86469" lon="2.58531">
        <ele>29.94</ele>
        <time>2014-01-09T08:44:04Z</time>
      </trkpt>
      <trkpt lat="48.86468" lon="2.5854">
        <ele>29.94</ele>
        <time>2014-01-09T08:44:19Z</time>
      </trkpt>
      <trkpt lat="48.86465" lon="2.58556">
        <ele>27.53</ele>
        <time>2014-01-09T08:44:35Z</time>
      </trkpt>
      <trkpt lat="48.86461" lon="2.58575">
        <ele>25.61</ele>
        <time>2014-01-09T08:44:45Z</time>
      </trkpt>
      <trkpt lat="48.86461" lon="2.58581">
        <ele>27.05</ele>
        <time>2014-01-09T08:44:55Z</time>
      </trkpt>
      <trkpt lat="48.86455" lon="2.58617">
        <ele>28.02</ele>
        <time>2014-01-09T08:45:14Z</time>
      </trkpt>
      <trkpt lat="48.8645" lon="2.58647">
        <ele>29.46</ele>
        <time>2014-01-09T08:45:31Z</time>
      </trkpt>
      <trkpt lat="48.86451" lon="2.58682">
        <ele>29.94</ele>
        <time>2014-01-09T08:45:48Z</time>
      </trkpt>
      <trkpt lat="48.86451" lon="2.58684">
        <ele>29.94</ele>
        <time>2014-01-09T08:45:49Z</time>
      </trkpt>
      <trkpt lat="48.86454" lon="2.58687">
        <ele>30.42</ele>
        <time>2014-01-09T08:46:04Z</time>
      </trkpt>
      <trkpt lat="48.86457" lon="2.58725">
        <ele>31.38</ele>
        <time>2014-01-09T08:46:23Z</time>
      </trkpt>
      <trkpt lat="48.86461" lon="2.58756">
        <ele>30.9</ele>
        <time>2014-01-09T08:46:38Z</time>
      </trkpt>
      <trkpt lat="48.86466" lon="2.58782">
        <ele>31.38</ele>
        <time>2014-01-09T08:46:53Z</time>
      </trkpt>
      <trkpt lat="48.86471" lon="2.58819">
        <ele>31.38</ele>
        <time>2014-01-09T08:47:14Z</time>
      </trkpt>
      <trkpt lat="48.86472" lon="2.5886">
        <ele>30.9</ele>
        <time>2014-01-09T08:47:35Z</time>
      </trkpt>
      <trkpt lat="48.86474" lon="2.58882">
        <ele>30.42</ele>
        <time>2014-01-09T08:47:49Z</time>
      </trkpt>
      <trkpt lat="48.86479" lon="2.58916">
        <ele>27.05</ele>
        <time>2014-01-09T08:48:05Z</time>
      </trkpt>
      <trkpt lat="48.86482" lon="2.58947">
        <ele>27.05</ele>
        <time>2014-01-09T08:48:19Z</time>
      </trkpt>
      <trkpt lat="48.86482" lon="2.5895">
        <ele>27.05</ele>
        <time>2014-01-09T08:48:20Z</time>
      </trkpt>
      <trkpt lat="48.86484" lon="2.58958">
        <ele>27.53</ele>
        <time>2014-01-09T08:48:25Z</time>
      </trkpt>
      <trkpt lat="48.8649" lon="2.58981">
        <ele>26.57</ele>
        <time>2014-01-09T08:48:40Z</time>
      </trkpt>
      <trkpt lat="48.86496" lon="2.59004">
        <ele>26.09</ele>
        <time>2014-01-09T08:48:52Z</time>
      </trkpt>
      <trkpt lat="48.86503" lon="2.59026">
        <ele>24.17</ele>
        <time>2014-01-09T08:49:08Z</time>
      </trkpt>
      <trkpt lat="48.86508" lon="2.59057">
        <ele>26.09</ele>
        <time>2014-01-09T08:49:24Z</time>
      </trkpt>
      <trkpt lat="48.86512" lon="2.59073">
        <ele>27.05</ele>
        <time>2014-01-09T08:49:32Z</time>
      </trkpt>
      <trkpt lat="48.86527" lon="2.59108">
        <ele>28.02</ele>
        <time>2014-01-09T08:49:47Z</time>
      </trkpt>
      <trkpt lat="48.86534" lon="2.59134">
        <ele>28.5</ele>
        <time>2014-01-09T08:50:00Z</time>
      </trkpt>
      <trkpt lat="48.86541" lon="2.59153">
        <ele>24.17</ele>
        <time>2014-01-09T08:50:16Z</time>
      </trkpt>
      <trkpt lat="48.86547" lon="2.59188">
        <ele>24.17</ele>
        <time>2014-01-09T08:50:31Z</time>
      </trkpt>
      <trkpt lat="48.8655" lon="2.59211">
        <ele>24.65</ele>
        <time>2014-01-09T08:50:45Z</time>
      </trkpt>
      <trkpt lat="48.86553" lon="2.59225">
        <ele>23.69</ele>
        <time>2014-01-09T08:50:55Z</time>
      </trkpt>
      <trkpt lat="48.86556" lon="2.59235">
        <ele>23.21</ele>
        <time>2014-01-09T08:51:00Z</time>
      </trkpt>
      <trkpt lat="48.86556" lon="2.59255">
        <ele>23.21</ele>
        <time>2014-01-09T08:51:08Z</time>
      </trkpt>
      <trkpt lat="48.8656" lon="2.59287">
        <ele>27.05</ele>
        <time>2014-01-09T08:51:26Z</time>
      </trkpt>
      <trkpt lat="48.86564" lon="2.59314">
        <ele>27.53</ele>
        <time>2014-01-09T08:51:39Z</time>
      </trkpt>
      <trkpt lat="48.8657" lon="2.59344">
        <ele>28.5</ele>
        <time>2014-01-09T08:51:57Z</time>
      </trkpt>
      <trkpt lat="48.8658" lon="2.59381">
        <ele>28.98</ele>
        <time>2014-01-09T08:52:13Z</time>
      </trkpt>
      <trkpt lat="48.86588" lon="2.594">
        <ele>26.57</ele>
        <time>2014-01-09T08:52:29Z</time>
      </trkpt>
      <trkpt lat="48.86598" lon="2.59435">
        <ele>23.69</ele>
        <time>2014-01-09T08:52:46Z</time>
      </trkpt>
      <trkpt lat="48.86604" lon="2.59459">
        <ele>22.25</ele>
        <time>2014-01-09T08:53:01Z</time>
      </trkpt>
      <trkpt lat="48.86609" lon="2.59496">
        <ele>25.13</ele>
        <time>2014-01-09T08:53:16Z</time>
      </trkpt>
      <trkpt lat="48.86613" lon="2.59521">
        <ele>27.05</ele>
        <time>2014-01-09T08:53:32Z</time>
      </trkpt>
      <trkpt lat="48.86617" lon="2.5955">
        <ele>28.5</ele>
        <time>2014-01-09T08:53:44Z</time>
      </trkpt>
      <trkpt lat="48.86618" lon="2.59574">
        <ele>26.57</ele>
        <time>2014-01-09T08:53:59Z</time>
      </trkpt>
      <trkpt lat="48.86622" lon="2.59611">
        <ele>28.98</ele>
        <time>2014-01-09T08:54:15Z</time>
      </trkpt>
      <trkpt lat="48.86623" lon="2.59633">
        <ele>28.02</ele>
        <time>2014-01-09T08:54:25Z</time>
      </trkpt>
      <trkpt lat="48.86627" lon="2.59657">
        <ele>28.98</ele>
        <time>2014-01-09T08:54:41Z</time>
      </trkpt>
      <trkpt lat="48.86633" lon="2.59693">
        <ele>28.5</ele>
        <time>2014-01-09T08:54:56Z</time>
      </trkpt>
      <trkpt lat="48.86638" lon="2.59719">
        <ele>27.53</ele>
        <time>2014-01-09T08:55:13Z</time>
      </trkpt>
      <trkpt lat="48.86643" lon="2.59751">
        <ele>30.42</ele>
        <time>2014-01-09T08:55:27Z</time>
      </trkpt>
      <trkpt lat="48.86646" lon="2.59773">
        <ele>27.53</ele>
        <time>2014-01-09T08:55:42Z</time>
      </trkpt>
      <trkpt lat="48.86646" lon="2.59778">
        <ele>27.53</ele>
        <time>2014-01-09T08:55:44Z</time>
      </trkpt>
      <trkpt lat="48.86639" lon="2.59817">
        <ele>31.38</ele>
        <time>2014-01-09T08:56:02Z</time>
      </trkpt>
      <trkpt lat="48.86636" lon="2.59849">
        <ele>32.82</ele>
        <time>2014-01-09T08:56:19Z</time>
      </trkpt>
      <trkpt lat="48.86628" lon="2.59879">
        <ele>37.15</ele>
        <time>2014-01-09T08:56:34Z</time>
      </trkpt>
      <trkpt lat="48.86621" lon="2.59914">
        <ele>34.26</ele>
        <time>2014-01-09T08:56:54Z</time>
      </trkpt>
      <trkpt lat="48.86615" lon="2.59936">
        <ele>34.74</ele>
        <time>2014-01-09T08:57:06Z</time>
      </trkpt>
      <trkpt lat="48.86612" lon="2.59941">
        <ele>34.26</ele>
        <time>2014-01-09T08:57:10Z</time>
      </trkpt>
      <trkpt lat="48.86604" lon="2.59959">
        <ele>33.3</ele>
        <time>2014-01-09T08:57:25Z</time>
      </trkpt>
      <trkpt lat="48.86603" lon="2.59961">
        <ele>33.3</ele>
        <time>2014-01-09T08:57:32Z</time>
      </trkpt>
      <trkpt lat="48.86595" lon="2.59989">
        <ele>34.26</ele>
        <time>2014-01-09T08:57:45Z</time>
      </trkpt>
      <trkpt lat="48.86582" lon="2.60007">
        <ele>31.86</ele>
        <time>2014-01-09T08:58:00Z</time>
      </trkpt>
      <trkpt lat="48.86584" lon="2.60019">
        <ele>30.42</ele>
        <time>2014-01-09T08:58:10Z</time>
      </trkpt>
      <trkpt lat="48.86583" lon="2.60022">
        <ele>30.42</ele>
        <time>2014-01-09T08:58:12Z</time>
      </trkpt>
      <trkpt lat="48.86577" lon="2.60054">
        <ele>30.42</ele>
        <time>2014-01-09T08:58:26Z</time>
      </trkpt>
      <trkpt lat="48.86573" lon="2.6008">
        <ele>28.98</ele>
        <time>2014-01-09T08:58:42Z</time>
      </trkpt>
      <trkpt lat="48.86564" lon="2.6011">
        <ele>31.86</ele>
        <time>2014-01-09T08:58:57Z</time>
      </trkpt>
      <trkpt lat="48.86555" lon="2.60137">
        <ele>32.82</ele>
        <time>2014-01-09T08:59:10Z</time>
      </trkpt>
      <trkpt lat="48.86549" lon="2.60162">
        <ele>34.74</ele>
        <time>2014-01-09T08:59:26Z</time>
      </trkpt>
      <trkpt lat="48.86542" lon="2.60183">
        <ele>35.23</ele>
        <time>2014-01-09T08:59:40Z</time>
      </trkpt>
      <trkpt lat="48.86535" lon="2.60212">
        <ele>38.59</ele>
        <time>2014-01-09T08:59:54Z</time>
      </trkpt>
      <trkpt lat="48.86534" lon="2.60217">
        <ele>38.11</ele>
        <time>2014-01-09T08:59:57Z</time>
      </trkpt>
      <trkpt lat="48.86529" lon="2.6023">
        <ele>36.67</ele>
        <time>2014-01-09T09:00:02Z</time>
      </trkpt>
      <trkpt lat="48.86523" lon="2.60251">
        <ele>35.71</ele>
        <time>2014-01-09T09:00:15Z</time>
      </trkpt>
      <trkpt lat="48.86522" lon="2.60254">
        <ele>34.74</ele>
        <time>2014-01-09T09:00:19Z</time>
      </trkpt>
      <trkpt lat="48.86517" lon="2.60263">
        <ele>32.82</ele>
        <time>2014-01-09T09:00:23Z</time>
      </trkpt>
      <trkpt lat="48.86504" lon="2.60297">
        <ele>31.38</ele>
        <time>2014-01-09T09:00:38Z</time>
      </trkpt>
      <trkpt lat="48.86503" lon="2.60308">
        <ele>33.3</ele>
        <time>2014-01-09T09:00:50Z</time>
      </trkpt>
      <trkpt lat="48.86493" lon="2.60351">
        <ele>36.19</ele>
        <time>2014-01-09T09:01:07Z</time>
      </trkpt>
      <trkpt lat="48.86489" lon="2.60373">
        <ele>34.26</ele>
        <time>2014-01-09T09:01:25Z</time>
      </trkpt>
      <trkpt lat="48.86481" lon="2.60395">
        <ele>33.3</ele>
        <time>2014-01-09T09:01:37Z</time>
      </trkpt>
      <trkpt lat="48.86472" lon="2.60432">
        <ele>32.34</ele>
        <time>2014-01-09T09:01:53Z</time>
      </trkpt>
      <trkpt lat="48.86465" lon="2.60462">
        <ele>31.38</ele>
        <time>2014-01-09T09:02:09Z</time>
      </trkpt>
      <trkpt lat="48.86456" lon="2.60485">
        <ele>29.94</ele>
        <time>2014-01-09T09:02:22Z</time>
      </trkpt>
      <trkpt lat="48.86452" lon="2.60499">
        <ele>29.94</ele>
        <time>2014-01-09T09:02:31Z</time>
      </trkpt>
      <trkpt lat="48.8645" lon="2.60514">
        <ele>29.94</ele>
        <time>2014-01-09T09:02:37Z</time>
      </trkpt>
      <trkpt lat="48.86437" lon="2.60551">
        <ele>27.05</ele>
        <time>2014-01-09T09:02:58Z</time>
      </trkpt>
      <trkpt lat="48.86434" lon="2.60572">
        <ele>26.09</ele>
        <time>2014-01-09T09:03:15Z</time>
      </trkpt>
      <trkpt lat="48.86434" lon="2.60573">
        <ele>26.09</ele>
        <time>2014-01-09T09:03:23Z</time>
      </trkpt>
      <trkpt lat="48.86431" lon="2.60589">
        <ele>24.65</ele>
        <time>2014-01-09T09:03:32Z</time>
      </trkpt>
      <trkpt lat="48.8642" lon="2.60614">
        <ele>26.57</ele>
        <time>2014-01-09T09:03:47Z</time>
      </trkpt>
      <trkpt lat="48.86406" lon="2.60639">
        <ele>25.13</ele>
        <time>2014-01-09T09:04:01Z</time>
      </trkpt>
      <trkpt lat="48.86397" lon="2.60666">
        <ele>24.65</ele>
        <time>2014-01-09T09:04:19Z</time>
      </trkpt>
      <trkpt lat="48.86393" lon="2.60674">
        <ele>24.65</ele>
        <time>2014-01-09T09:04:23Z</time>
      </trkpt>
      <trkpt lat="48.86379" lon="2.607">
        <ele>25.61</ele>
        <time>2014-01-09T09:04:38Z</time>
      </trkpt>
      <trkpt lat="48.86373" lon="2.60717">
        <ele>26.57</ele>
        <time>2014-01-09T09:04:50Z</time>
      </trkpt>
      <trkpt lat="48.86358" lon="2.60742">
        <ele>27.05</ele>
        <time>2014-01-09T09:05:06Z</time>
      </trkpt>
      <trkpt lat="48.86356" lon="2.60755">
        <ele>26.57</ele>
        <time>2014-01-09T09:05:17Z</time>
      </trkpt>
      <trkpt lat="48.86343" lon="2.60787">
        <ele>28.5</ele>
        <time>2014-01-09T09:05:34Z</time>
      </trkpt>
      <trkpt lat="48.86332" lon="2.60809">
        <ele>26.57</ele>
        <time>2014-01-09T09:05:48Z</time>
      </trkpt>
      <trkpt lat="48.86318" lon="2.60829">
        <ele>25.13</ele>
        <time>2014-01-09T09:06:02Z</time>
      </trkpt>
      <trkpt lat="48.86306" lon="2.60848">
        <ele>24.17</ele>
        <time>2014-01-09T09:06:15Z</time>
      </trkpt>
      <trkpt lat="48.86292" lon="2.60866">
        <ele>23.21</ele>
        <time>2014-01-09T09:06:30Z</time>
      </trkpt>
      <trkpt lat="48.8628" lon="2.60877">
        <ele>26.09</ele>
        <time>2014-01-09T09:06:38Z</time>
      </trkpt>
      <trkpt lat="48.86269" lon="2.6089">
        <ele>28.5</ele>
        <time>2014-01-09T09:06:46Z</time>
      </trkpt>
      <trkpt lat="48.86254" lon="2.60909">
        <ele>29.94</ele>
        <time>2014-01-09T09:07:05Z</time>
      </trkpt>
      <trkpt lat="48.86233" lon="2.60926">
        <ele>29.46</ele>
        <time>2014-01-09T09:07:21Z</time>
      </trkpt>
      <trkpt lat="48.86217" lon="2.60942">
        <ele>28.5</ele>
        <time>2014-01-09T09:07:38Z</time>
      </trkpt>
      <trkpt lat="48.86203" lon="2.60957">
        <ele>27.05</ele>
        <time>2014-01-09T09:07:52Z</time>
      </trkpt>
      <trkpt lat="48.86184" lon="2.6098">
        <ele>28.5</ele>
        <time>2014-01-09T09:08:09Z</time>
      </trkpt>
      <trkpt lat="48.86167" lon="2.60997">
        <ele>31.38</ele>
        <time>2014-01-09T09:08:22Z</time>
      </trkpt>
      <trkpt lat="48.86156" lon="2.61002">
        <ele>29.46</ele>
        <time>2014-01-09T09:08:35Z</time>
      </trkpt>
      <trkpt lat="48.86155" lon="2.61012">
        <ele>28.5</ele>
        <time>2014-01-09T09:09:04Z</time>
      </trkpt>
      <trkpt lat="48.86141" lon="2.61029">
        <ele>29.46</ele>
        <time>2014-01-09T09:09:18Z</time>
      </trkpt>
      <trkpt lat="48.86129" lon="2.61048">
        <ele>29.46</ele>
        <time>2014-01-09T09:09:32Z</time>
      </trkpt>
      <trkpt lat="48.86112" lon="2.61072">
        <ele>28.5</ele>
        <time>2014-01-09T09:09:48Z</time>
      </trkpt>
      <trkpt lat="48.86099" lon="2.61092">
        <ele>26.57</ele>
        <time>2014-01-09T09:10:02Z</time>
      </trkpt>
      <trkpt lat="48.86089" lon="2.6111">
        <ele>25.13</ele>
        <time>2014-01-09T09:10:15Z</time>
      </trkpt>
      <trkpt lat="48.86078" lon="2.6113">
        <ele>25.13</ele>
        <time>2014-01-09T09:10:27Z</time>
      </trkpt>
      <trkpt lat="48.86073" lon="2.61138">
        <ele>25.61</ele>
        <time>2014-01-09T09:10:32Z</time>
      </trkpt>
      <trkpt lat="48.86058" lon="2.61163">
        <ele>23.69</ele>
        <time>2014-01-09T09:10:49Z</time>
      </trkpt>
      <trkpt lat="48.86043" lon="2.61189">
        <ele>24.65</ele>
        <time>2014-01-09T09:11:05Z</time>
      </trkpt>
      <trkpt lat="48.86033" lon="2.61209">
        <ele>23.69</ele>
        <time>2014-01-09T09:11:18Z</time>
      </trkpt>
      <trkpt lat="48.8602" lon="2.61231">
        <ele>22.73</ele>
        <time>2014-01-09T09:11:34Z</time>
      </trkpt>
      <trkpt lat="48.86007" lon="2.61251">
        <ele>18.88</ele>
        <time>2014-01-09T09:11:50Z</time>
      </trkpt>
      <trkpt lat="48.8599" lon="2.61287">
        <ele>23.69</ele>
        <time>2014-01-09T09:12:09Z</time>
      </trkpt>
      <trkpt lat="48.8598" lon="2.61307">
        <ele>23.21</ele>
        <time>2014-01-09T09:12:22Z</time>
      </trkpt>
      <trkpt lat="48.8597" lon="2.61328">
        <ele>20.32</ele>
        <time>2014-01-09T09:12:37Z</time>
      </trkpt>
      <trkpt lat="48.85971" lon="2.61345">
        <ele>20.81</ele>
        <time>2014-01-09T09:12:50Z</time>
      </trkpt>
      <trkpt lat="48.85968" lon="2.61357">
        <ele>21.29</ele>
        <time>2014-01-09T09:13:06Z</time>
      </trkpt>
      <trkpt lat="48.85957" lon="2.61375">
        <ele>20.32</ele>
        <time>2014-01-09T09:13:20Z</time>
      </trkpt>
      <trkpt lat="48.85945" lon="2.61394">
        <ele>18.88</ele>
        <time>2014-01-09T09:13:34Z</time>
      </trkpt>
      <trkpt lat="48.85937" lon="2.6141">
        <ele>18.4</ele>
        <time>2014-01-09T09:13:45Z</time>
      </trkpt>
      <trkpt lat="48.85928" lon="2.6144">
        <ele>20.32</ele>
        <time>2014-01-09T09:13:59Z</time>
      </trkpt>
      <trkpt lat="48.85923" lon="2.61451">
        <ele>22.25</ele>
        <time>2014-01-09T09:14:05Z</time>
      </trkpt>
      <trkpt lat="48.85916" lon="2.61477">
        <ele>22.73</ele>
        <time>2014-01-09T09:14:21Z</time>
      </trkpt>
      <trkpt lat="48.85914" lon="2.6148">
        <ele>23.21</ele>
        <time>2014-01-09T09:14:23Z</time>
      </trkpt>
      <trkpt lat="48.85908" lon="2.61503">
        <ele>22.25</ele>
        <time>2014-01-09T09:14:39Z</time>
      </trkpt>
      <trkpt lat="48.85902" lon="2.61525">
        <ele>19.84</ele>
        <time>2014-01-09T09:14:52Z</time>
      </trkpt>
      <trkpt lat="48.859" lon="2.61531">
        <ele>19.84</ele>
        <time>2014-01-09T09:14:56Z</time>
      </trkpt>
      <trkpt lat="48.85892" lon="2.61555">
        <ele>17.92</ele>
        <time>2014-01-09T09:15:09Z</time>
      </trkpt>
      <trkpt lat="48.85888" lon="2.61574">
        <ele>16.96</ele>
        <time>2014-01-09T09:15:22Z</time>
      </trkpt>
      <trkpt lat="48.85881" lon="2.61605">
        <ele>16.48</ele>
        <time>2014-01-09T09:15:35Z</time>
      </trkpt>
      <trkpt lat="48.85871" lon="2.61639">
        <ele>17.44</ele>
        <time>2014-01-09T09:15:51Z</time>
      </trkpt>
      <trkpt lat="48.85865" lon="2.61658">
        <ele>18.88</ele>
        <time>2014-01-09T09:15:57Z</time>
      </trkpt>
      <trkpt lat="48.85865" lon="2.61671">
        <ele>20.32</ele>
        <time>2014-01-09T09:16:08Z</time>
      </trkpt>
      <trkpt lat="48.85862" lon="2.6169">
        <ele>25.13</ele>
        <time>2014-01-09T09:16:33Z</time>
      </trkpt>
      <trkpt lat="48.85861" lon="2.61691">
        <ele>25.61</ele>
        <time>2014-01-09T09:16:34Z</time>
      </trkpt>
      <trkpt lat="48.85858" lon="2.61693">
        <ele>27.05</ele>
        <time>2014-01-09T09:16:37Z</time>
      </trkpt>
      <trkpt lat="48.8585" lon="2.61714">
        <ele>30.42</ele>
        <time>2014-01-09T09:16:51Z</time>
      </trkpt>
      <trkpt lat="48.85841" lon="2.6174">
        <ele>29.46</ele>
        <time>2014-01-09T09:17:06Z</time>
      </trkpt>
      <trkpt lat="48.85837" lon="2.61767">
        <ele>29.46</ele>
        <time>2014-01-09T09:17:21Z</time>
      </trkpt>
      <trkpt lat="48.85832" lon="2.61789">
        <ele>27.05</ele>
        <time>2014-01-09T09:17:33Z</time>
      </trkpt>
      <trkpt lat="48.85826" lon="2.61819">
        <ele>26.57</ele>
        <time>2014-01-09T09:17:49Z</time>
      </trkpt>
      <trkpt lat="48.8582" lon="2.61835">
        <ele>25.61</ele>
        <time>2014-01-09T09:17:57Z</time>
      </trkpt>
      <trkpt lat="48.85819" lon="2.61845">
        <ele>24.17</ele>
        <time>2014-01-09T09:18:02Z</time>
      </trkpt>
      <trkpt lat="48.85811" lon="2.61882">
        <ele>28.5</ele>
        <time>2014-01-09T09:18:18Z</time>
      </trkpt>
      <trkpt lat="48.85805" lon="2.61902">
        <ele>28.5</ele>
        <time>2014-01-09T09:18:31Z</time>
      </trkpt>
      <trkpt lat="48.85795" lon="2.61927">
        <ele>29.94</ele>
        <time>2014-01-09T09:18:45Z</time>
      </trkpt>
      <trkpt lat="48.85784" lon="2.61948">
        <ele>31.86</ele>
        <time>2014-01-09T09:18:58Z</time>
      </trkpt>
      <trkpt lat="48.85771" lon="2.61969">
        <ele>32.82</ele>
        <time>2014-01-09T09:19:12Z</time>
      </trkpt>
      <trkpt lat="48.85767" lon="2.61977">
        <ele>33.78</ele>
        <time>2014-01-09T09:19:17Z</time>
      </trkpt>
      <trkpt lat="48.85763" lon="2.61987">
        <ele>34.26</ele>
        <time>2014-01-09T09:19:24Z</time>
      </trkpt>
      <trkpt lat="48.85761" lon="2.61987">
        <ele>34.26</ele>
        <time>2014-01-09T09:19:26Z</time>
      </trkpt>
      <trkpt lat="48.85762" lon="2.62002">
        <ele>32.34</ele>
        <time>2014-01-09T09:19:33Z</time>
      </trkpt>
      <trkpt lat="48.85758" lon="2.62015">
        <ele>31.38</ele>
        <time>2014-01-09T09:19:41Z</time>
      </trkpt>
      <trkpt lat="48.85751" lon="2.62031">
        <ele>33.3</ele>
        <time>2014-01-09T09:19:51Z</time>
      </trkpt>
      <trkpt lat="48.85748" lon="2.62042">
        <ele>34.26</ele>
        <time>2014-01-09T09:20:02Z</time>
      </trkpt>
      <trkpt lat="48.85738" lon="2.62065">
        <ele>31.86</ele>
        <time>2014-01-09T09:20:19Z</time>
      </trkpt>
      <trkpt lat="48.85723" lon="2.62077">
        <ele>33.78</ele>
        <time>2014-01-09T09:20:32Z</time>
      </trkpt>
      <trkpt lat="48.85713" lon="2.62082">
        <ele>33.78</ele>
        <time>2014-01-09T09:20:40Z</time>
      </trkpt>
      <trkpt lat="48.85699" lon="2.6209">
        <ele>34.74</ele>
        <time>2014-01-09T09:20:54Z</time>
      </trkpt>
      <trkpt lat="48.85698" lon="2.62091">
        <ele>34.74</ele>
        <time>2014-01-09T09:20:55Z</time>
      </trkpt>
      <trkpt lat="48.85695" lon="2.62096">
        <ele>33.78</ele>
        <time>2014-01-09T09:20:59Z</time>
      </trkpt>
      <trkpt lat="48.85677" lon="2.62101">
        <ele>35.23</ele>
        <time>2014-01-09T09:21:13Z</time>
      </trkpt>
      <trkpt lat="48.85671" lon="2.62103">
        <ele>37.63</ele>
        <time>2014-01-09T09:21:17Z</time>
      </trkpt>
      <trkpt lat="48.85657" lon="2.6212">
        <ele>37.63</ele>
        <time>2014-01-09T09:21:32Z</time>
      </trkpt>
      <trkpt lat="48.85654" lon="2.62138">
        <ele>36.67</ele>
        <time>2014-01-09T09:21:45Z</time>
      </trkpt>
      <trkpt lat="48.85651" lon="2.62157">
        <ele>36.19</ele>
        <time>2014-01-09T09:21:57Z</time>
      </trkpt>
      <trkpt lat="48.85649" lon="2.62191">
        <ele>35.71</ele>
        <time>2014-01-09T09:22:14Z</time>
      </trkpt>
      <trkpt lat="48.85646" lon="2.62222">
        <ele>37.15</ele>
        <time>2014-01-09T09:22:30Z</time>
      </trkpt>
      <trkpt lat="48.85645" lon="2.62259">
        <ele>40.99</ele>
        <time>2014-01-09T09:22:48Z</time>
      </trkpt>
      <trkpt lat="48.85641" lon="2.62274">
        <ele>41.95</ele>
        <time>2014-01-09T09:23:01Z</time>
      </trkpt>
      <trkpt lat="48.85639" lon="2.62275">
        <ele>40.99</ele>
        <time>2014-01-09T09:23:29Z</time>
      </trkpt>
      <trkpt lat="48.85638" lon="2.6229">
        <ele>41.47</ele>
        <time>2014-01-09T09:23:45Z</time>
      </trkpt>
      <trkpt lat="48.85639" lon="2.62306">
        <ele>41.47</ele>
        <time>2014-01-09T09:23:55Z</time>
      </trkpt>
      <trkpt lat="48.85633" lon="2.62344">
        <ele>41.47</ele>
        <time>2014-01-09T09:24:15Z</time>
      </trkpt>
      <trkpt lat="48.8563" lon="2.62377">
        <ele>39.55</ele>
        <time>2014-01-09T09:24:32Z</time>
      </trkpt>
      <trkpt lat="48.85632" lon="2.62385">
        <ele>40.99</ele>
        <time>2014-01-09T09:24:44Z</time>
      </trkpt>
      <trkpt lat="48.85631" lon="2.62383">
        <ele>41.47</ele>
        <time>2014-01-09T09:24:59Z</time>
      </trkpt>
      <trkpt lat="48.85632" lon="2.62385">
        <ele>40.99</ele>
        <time>2014-01-09T09:24:44Z</time>
      </trkpt>
      <trkpt lat="48.8563" lon="2.62377">
        <ele>39.55</ele>
        <time>2014-01-09T09:24:32Z</time>
      </trkpt>
      <trkpt lat="48.85633" lon="2.62344">
        <ele>41.47</ele>
        <time>2014-01-09T09:24:15Z</time>
      </trkpt>
      <trkpt lat="48.85639" lon="2.62306">
        <ele>41.47</ele>
        <time>2014-01-09T09:23:55Z</time>
      </trkpt>
      <trkpt lat="48.85638" lon="2.6229">
        <ele>41.47</ele>
        <time>2014-01-09T09:23:45Z</time>
      </trkpt>
      <trkpt lat="48.85639" lon="2.62275">
        <ele>40.99</ele>
        <time>2014-01-09T09:23:29Z</time>
      </trkpt>
      <trkpt lat="48.85641" lon="2.62274">
        <ele>41.95</ele>
        <time>2014-01-09T09:23:01Z</time>
      </trkpt>
      <trkpt lat="48.85645" lon="2.62259">
        <ele>40.99</ele>
        <time>2014-01-09T09:22:48Z</time>
      </trkpt>
      <trkpt lat="48.85646" lon="2.62222">
        <ele>37.15</ele>
        <time>2014-01-09T09:22:30Z</time>
      </trkpt>
      <trkpt lat="48.85649" lon="2.62191">
        <ele>35.71</ele>
        <time>2014-01-09T09:22:14Z</time>
      </trkpt>
      <trkpt lat="48.85651" lon="2.62157">
        <ele>36.19</ele>
        <time>2014-01-09T09:21:57Z</time>
      </trkpt>
      <trkpt lat="48.85654" lon="2.62138">
        <ele>36.67</ele>
        <time>2014-01-09T09:21:45Z</time>
      </trkpt>
      <trkpt lat="48.85657" lon="2.6212">
        <ele>37.63</ele>
        <time>2014-01-09T09:21:32Z</time>
      </trkpt>
      <trkpt lat="48.85671" lon="2.62103">
        <ele>37.63</ele>
        <time>2014-01-09T09:21:17Z</time>
      </trkpt>
      <trkpt lat="48.85677" lon="2.62101">
        <ele>35.23</ele>
        <time>2014-01-09T09:21:13Z</time>
      </trkpt>
      <trkpt lat="48.85695" lon="2.62096">
        <ele>33.78</ele>
        <time>2014-01-09T09:20:59Z</time>
      </trkpt>
      <trkpt lat="48.85698" lon="2.62091">
        <ele>34.74</ele>
        <time>2014-01-09T09:20:55Z</time>
      </trkpt>
      <trkpt lat="48.85699" lon="2.6209">
        <ele>34.74</ele>
        <time>2014-01-09T09:20:54Z</time>
      </trkpt>
      <trkpt lat="48.85713" lon="2.62082">
        <ele>33.78</ele>
        <time>2014-01-09T09:20:40Z</time>
      </trkpt>
      <trkpt lat="48.85723" lon="2.62077">
        <ele>33.78</ele>
        <time>2014-01-09T09:20:32Z</time>
      </trkpt>
      <trkpt lat="48.85738" lon="2.62065">
        <ele>31.86</ele>
        <time>2014-01-09T09:20:19Z</time>
      </trkpt>
      <trkpt lat="48.85748" lon="2.62042">
        <ele>34.26</ele>
        <time>2014-01-09T09:20:02Z</time>
      </trkpt>
      <trkpt lat="48.85751" lon="2.62031">
        <ele>33.3</ele>
        <time>2014-01-09T09:19:51Z</time>
      </trkpt>
      <trkpt lat="48.85758" lon="2.62015">
        <ele>31.38</ele>
        <time>2014-01-09T09:19:41Z</time>
      </trkpt>
      <trkpt lat="48.85762" lon="2.62002">
        <ele>32.34</ele>
        <time>2014-01-09T09:19:33Z</time>
      </trkpt>
      <trkpt lat="48.85761" lon="2.61996">
        <ele>33.78</ele>
        <time>2014-01-09T09:19:30Z</time>
      </trkpt>
      <trkpt lat="48.85761" lon="2.61987">
        <ele>34.26</ele>
        <time>2014-01-09T09:19:26Z</time>
      </trkpt>
      <trkpt lat="48.85762" lon="2.61987">
        <ele>40.99</ele>
        <time>2014-01-09T09:45:25Z</time>
      </trkpt>
      <trkpt lat="48.85753" lon="2.61961">
        <ele>39.07</ele>
        <time>2014-01-09T09:45:04Z</time>
      </trkpt>
      <trkpt lat="48.85733" lon="2.61949">
        <ele>39.55</ele>
        <time>2014-01-09T09:44:45Z</time>
      </trkpt>
      <trkpt lat="48.85716" lon="2.61941">
        <ele>41.47</ele>
        <time>2014-01-09T09:44:32Z</time>
      </trkpt>
      <trkpt lat="48.85698" lon="2.61932">
        <ele>40.99</ele>
        <time>2014-01-09T09:44:19Z</time>
      </trkpt>
      <trkpt lat="48.85681" lon="2.6192">
        <ele>41.47</ele>
        <time>2014-01-09T09:44:05Z</time>
      </trkpt>
      <trkpt lat="48.85663" lon="2.61926">
        <ele>40.99</ele>
        <time>2014-01-09T09:43:51Z</time>
      </trkpt>
      <trkpt lat="48.85647" lon="2.61944">
        <ele>41.95</ele>
        <time>2014-01-09T09:43:38Z</time>
      </trkpt>
      <trkpt lat="48.85633" lon="2.61964">
        <ele>44.36</ele>
        <time>2014-01-09T09:43:25Z</time>
      </trkpt>
      <trkpt lat="48.85616" lon="2.61986">
        <ele>48.68</ele>
        <time>2014-01-09T09:43:06Z</time>
      </trkpt>
      <trkpt lat="48.85595" lon="2.62005">
        <ele>49.65</ele>
        <time>2014-01-09T09:42:47Z</time>
      </trkpt>
      <trkpt lat="48.8556" lon="2.62035">
        <ele>53.01</ele>
        <time>2014-01-09T09:42:24Z</time>
      </trkpt>
      <trkpt lat="48.85552" lon="2.62038">
        <ele>53.49</ele>
        <time>2014-01-09T09:42:19Z</time>
      </trkpt>
      <trkpt lat="48.85547" lon="2.62044">
        <ele>53.01</ele>
        <time>2014-01-09T09:42:15Z</time>
      </trkpt>
      <trkpt lat="48.85542" lon="2.62054">
        <ele>53.01</ele>
        <time>2014-01-09T09:42:08Z</time>
      </trkpt>
      <trkpt lat="48.8552" lon="2.62071">
        <ele>52.05</ele>
        <time>2014-01-09T09:41:50Z</time>
      </trkpt>
      <trkpt lat="48.85497" lon="2.62084">
        <ele>52.05</ele>
        <time>2014-01-09T09:41:32Z</time>
      </trkpt>
      <trkpt lat="48.85473" lon="2.62099">
        <ele>53.49</ele>
        <time>2014-01-09T09:41:12Z</time>
      </trkpt>
      <trkpt lat="48.85472" lon="2.621">
        <ele>53.49</ele>
        <time>2014-01-09T09:41:11Z</time>
      </trkpt>
      <trkpt lat="48.85448" lon="2.62107">
        <ele>54.93</ele>
        <time>2014-01-09T09:40:51Z</time>
      </trkpt>
      <trkpt lat="48.85425" lon="2.62108">
        <ele>54.45</ele>
        <time>2014-01-09T09:40:36Z</time>
      </trkpt>
      <trkpt lat="48.85404" lon="2.62113">
        <ele>55.89</ele>
        <time>2014-01-09T09:40:18Z</time>
      </trkpt>
      <trkpt lat="48.85381" lon="2.6211">
        <ele>57.34</ele>
        <time>2014-01-09T09:40:01Z</time>
      </trkpt>
      <trkpt lat="48.85353" lon="2.62099">
        <ele>60.22</ele>
        <time>2014-01-09T09:39:41Z</time>
      </trkpt>
      <trkpt lat="48.85326" lon="2.62084">
        <ele>59.74</ele>
        <time>2014-01-09T09:39:20Z</time>
      </trkpt>
      <trkpt lat="48.853" lon="2.62068">
        <ele>58.3</ele>
        <time>2014-01-09T09:38:59Z</time>
      </trkpt>
      <trkpt lat="48.85273" lon="2.62047">
        <ele>58.78</ele>
        <time>2014-01-09T09:38:38Z</time>
      </trkpt>
      <trkpt lat="48.85263" lon="2.62036">
        <ele>60.7</ele>
        <time>2014-01-09T09:38:20Z</time>
      </trkpt>
      <trkpt lat="48.85249" lon="2.62011">
        <ele>61.18</ele>
        <time>2014-01-09T09:38:05Z</time>
      </trkpt>
      <trkpt lat="48.85241" lon="2.61977">
        <ele>64.07</ele>
        <time>2014-01-09T09:37:47Z</time>
      </trkpt>
      <trkpt lat="48.85238" lon="2.61937">
        <ele>68.39</ele>
        <time>2014-01-09T09:37:26Z</time>
      </trkpt>
      <trkpt lat="48.85236" lon="2.61911">
        <ele>70.79</ele>
        <time>2014-01-09T09:37:13Z</time>
      </trkpt>
      <trkpt lat="48.85234" lon="2.61901">
        <ele>69.35</ele>
        <time>2014-01-09T09:37:08Z</time>
      </trkpt>
      <trkpt lat="48.85229" lon="2.6188">
        <ele>68.39</ele>
        <time>2014-01-09T09:36:57Z</time>
      </trkpt>
      <trkpt lat="48.85229" lon="2.61882">
        <ele>67.91</ele>
        <time>2014-01-09T09:36:50Z</time>
      </trkpt>
      <trkpt lat="48.85183" lon="2.61841">
        <ele>72.72</ele>
        <time>2014-01-09T09:57:40Z</time>
      </trkpt>
      <trkpt lat="48.85179" lon="2.61839">
        <ele>72.24</ele>
        <time>2014-01-09T09:57:43Z</time>
      </trkpt>
      <trkpt lat="48.85173" lon="2.61838">
        <ele>71.27</ele>
        <time>2014-01-09T09:57:47Z</time>
      </trkpt>
      <trkpt lat="48.85157" lon="2.61837">
        <ele>69.83</ele>
        <time>2014-01-09T09:57:59Z</time>
      </trkpt>
      <trkpt lat="48.85136" lon="2.61829">
        <ele>68.87</ele>
        <time>2014-01-09T09:58:15Z</time>
      </trkpt>
      <trkpt lat="48.85124" lon="2.61836">
        <ele>67.91</ele>
        <time>2014-01-09T09:58:27Z</time>
      </trkpt>
      <trkpt lat="48.85123" lon="2.61836">
        <ele>67.91</ele>
        <time>2014-01-09T09:58:28Z</time>
      </trkpt>
      <trkpt lat="48.85104" lon="2.61833">
        <ele>66.95</ele>
        <time>2014-01-09T09:58:41Z</time>
      </trkpt>
      <trkpt lat="48.85096" lon="2.61833">
        <ele>65.99</ele>
        <time>2014-01-09T09:58:50Z</time>
      </trkpt>
      <trkpt lat="48.85091" lon="2.61836">
        <ele>65.99</ele>
        <time>2014-01-09T09:58:54Z</time>
      </trkpt>
      <trkpt lat="48.85071" lon="2.61828">
        <ele>69.35</ele>
        <time>2014-01-09T09:59:07Z</time>
      </trkpt>
      <trkpt lat="48.85048" lon="2.61819">
        <ele>74.16</ele>
        <time>2014-01-09T09:59:23Z</time>
      </trkpt>
      <trkpt lat="48.85034" lon="2.61816">
        <ele>75.12</ele>
        <time>2014-01-09T09:59:35Z</time>
      </trkpt>
      <trkpt lat="48.85026" lon="2.61816">
        <ele>74.64</ele>
        <time>2014-01-09T09:59:41Z</time>
      </trkpt>
      <trkpt lat="48.85003" lon="2.61808">
        <ele>73.68</ele>
        <time>2014-01-09T09:59:57Z</time>
      </trkpt>
      <trkpt lat="48.84984" lon="2.61806">
        <ele>72.72</ele>
        <time>2014-01-09T10:00:14Z</time>
      </trkpt>
      <trkpt lat="48.84961" lon="2.61798">
        <ele>73.68</ele>
        <time>2014-01-09T10:00:29Z</time>
      </trkpt>
      <trkpt lat="48.8495" lon="2.61801">
        <ele>73.2</ele>
        <time>2014-01-09T10:00:43Z</time>
      </trkpt>
      <trkpt lat="48.84928" lon="2.61788">
        <ele>73.68</ele>
        <time>2014-01-09T10:00:58Z</time>
      </trkpt>
      <trkpt lat="48.84917" lon="2.61781">
        <ele>74.64</ele>
        <time>2014-01-09T10:01:11Z</time>
      </trkpt>
      <trkpt lat="48.84915" lon="2.61781">
        <ele>74.64</ele>
        <time>2014-01-09T10:01:13Z</time>
      </trkpt>
      <trkpt lat="48.84909" lon="2.61782">
        <ele>74.16</ele>
        <time>2014-01-09T10:01:17Z</time>
      </trkpt>
      <trkpt lat="48.84883" lon="2.61768">
        <ele>76.08</ele>
        <time>2014-01-09T10:01:34Z</time>
      </trkpt>
      <trkpt lat="48.8486" lon="2.61762">
        <ele>77.04</ele>
        <time>2014-01-09T10:01:50Z</time>
      </trkpt>
      <trkpt lat="48.84848" lon="2.61758">
        <ele>73.68</ele>
        <time>2014-01-09T10:02:02Z</time>
      </trkpt>
      <trkpt lat="48.84843" lon="2.61757">
        <ele>73.2</ele>
        <time>2014-01-09T10:02:06Z</time>
      </trkpt>
      <trkpt lat="48.84822" lon="2.61752">
        <ele>74.64</ele>
        <time>2014-01-09T10:02:22Z</time>
      </trkpt>
      <trkpt lat="48.84801" lon="2.61746">
        <ele>76.08</ele>
        <time>2014-01-09T10:02:38Z</time>
      </trkpt>
      <trkpt lat="48.84795" lon="2.61743">
        <ele>75.6</ele>
        <time>2014-01-09T10:02:44Z</time>
      </trkpt>
      <trkpt lat="48.84788" lon="2.61742">
        <ele>75.6</ele>
        <time>2014-01-09T10:02:49Z</time>
      </trkpt>
      <trkpt lat="48.84767" lon="2.61736">
        <ele>76.08</ele>
        <time>2014-01-09T10:03:03Z</time>
      </trkpt>
      <trkpt lat="48.84745" lon="2.61734">
        <ele>76.56</ele>
        <time>2014-01-09T10:03:19Z</time>
      </trkpt>
      <trkpt lat="48.84726" lon="2.61731">
        <ele>75.12</ele>
        <time>2014-01-09T10:03:33Z</time>
      </trkpt>
      <trkpt lat="48.84704" lon="2.61725">
        <ele>76.56</ele>
        <time>2014-01-09T10:03:49Z</time>
      </trkpt>
      <trkpt lat="48.84679" lon="2.61718">
        <ele>78.97</ele>
        <time>2014-01-09T10:04:05Z</time>
      </trkpt>
      <trkpt lat="48.84665" lon="2.61717">
        <ele>77.52</ele>
        <time>2014-01-09T10:04:17Z</time>
      </trkpt>
      <trkpt lat="48.84657" lon="2.61715">
        <ele>76.08</ele>
        <time>2014-01-09T10:04:25Z</time>
      </trkpt>
      <trkpt lat="48.84637" lon="2.61711">
        <ele>75.6</ele>
        <time>2014-01-09T10:04:39Z</time>
      </trkpt>
      <trkpt lat="48.84626" lon="2.61709">
        <ele>76.08</ele>
        <time>2014-01-09T10:04:51Z</time>
      </trkpt>
      <trkpt lat="48.84606" lon="2.61709">
        <ele>77.52</ele>
        <time>2014-01-09T10:05:04Z</time>
      </trkpt>
      <trkpt lat="48.8459" lon="2.61706">
        <ele>78</ele>
        <time>2014-01-09T10:05:18Z</time>
      </trkpt>
      <trkpt lat="48.84571" lon="2.617">
        <ele>79.93</ele>
        <time>2014-01-09T10:05:31Z</time>
      </trkpt>
      <trkpt lat="48.84555" lon="2.61699">
        <ele>81.85</ele>
        <time>2014-01-09T10:05:43Z</time>
      </trkpt>
      <trkpt lat="48.84547" lon="2.61695">
        <ele>82.81</ele>
        <time>2014-01-09T10:05:48Z</time>
      </trkpt>
      <trkpt lat="48.84528" lon="2.61688">
        <ele>83.77</ele>
        <time>2014-01-09T10:06:01Z</time>
      </trkpt>
      <trkpt lat="48.84525" lon="2.61689">
        <ele>84.25</ele>
        <time>2014-01-09T10:06:04Z</time>
      </trkpt>
      <trkpt lat="48.84507" lon="2.61684">
        <ele>85.69</ele>
        <time>2014-01-09T10:06:17Z</time>
      </trkpt>
      <trkpt lat="48.84493" lon="2.61684">
        <ele>86.18</ele>
        <time>2014-01-09T10:06:29Z</time>
      </trkpt>
      <trkpt lat="48.84477" lon="2.61681">
        <ele>85.21</ele>
        <time>2014-01-09T10:06:42Z</time>
      </trkpt>
      <trkpt lat="48.84462" lon="2.61674">
        <ele>85.69</ele>
        <time>2014-01-09T10:06:54Z</time>
      </trkpt>
      <trkpt lat="48.8444" lon="2.61669">
        <ele>86.18</ele>
        <time>2014-01-09T10:07:09Z</time>
      </trkpt>
      <trkpt lat="48.84439" lon="2.61668">
        <ele>86.18</ele>
        <time>2014-01-09T10:07:11Z</time>
      </trkpt>
      <trkpt lat="48.84435" lon="2.61669">
        <ele>86.66</ele>
        <time>2014-01-09T10:07:14Z</time>
      </trkpt>
      <trkpt lat="48.8441" lon="2.6166">
        <ele>85.69</ele>
        <time>2014-01-09T10:07:32Z</time>
      </trkpt>
      <trkpt lat="48.84392" lon="2.61655">
        <ele>85.69</ele>
        <time>2014-01-09T10:07:48Z</time>
      </trkpt>
      <trkpt lat="48.8438" lon="2.61638">
        <ele>82.81</ele>
        <time>2014-01-09T10:08:03Z</time>
      </trkpt>
      <trkpt lat="48.84379" lon="2.61634">
        <ele>82.33</ele>
        <time>2014-01-09T10:08:05Z</time>
      </trkpt>
      <trkpt lat="48.84371" lon="2.61618">
        <ele>82.33</ele>
        <time>2014-01-09T10:08:15Z</time>
      </trkpt>
      <trkpt lat="48.84356" lon="2.61617">
        <ele>85.21</ele>
        <time>2014-01-09T10:08:28Z</time>
      </trkpt>
      <trkpt lat="48.84355" lon="2.61612">
        <ele>85.21</ele>
        <time>2014-01-09T10:08:37Z</time>
      </trkpt>
      <trkpt lat="48.8436" lon="2.61567">
        <ele>85.21</ele>
        <time>2014-01-09T10:09:10Z</time>
      </trkpt>
      <trkpt lat="48.84358" lon="2.6156">
        <ele>84.25</ele>
        <time>2014-01-09T10:09:22Z</time>
      </trkpt>
    </trkseg>
  </trk>
</gpx>